<?xml version="1.0" encoding="UTF-8" standalone="no" ?>
<gpx xmlns="http://www.topografix.com/GPX/1/1" creator="MapSource 6.11.6" version="1.1" xmlns:xsi="http://www.w3.org/2001/XMLSchema-instance" xsi:schemaLocation="http://www.topografix.com/GPX/1/1 http://www.topografix.com/GPX/1/1/gpx.xsd">

  <metadata>
    <link href="http://www.garmin.com">
      <text>Garmin International</text>
    </link>
    <time>2009-07-19T14:55:19Z</time>
    <bounds maxlat="50.584716" maxlon="6.298235" minlat="50.563575" minlon="6.271645"/>
  </metadata>

  <trk>
    <name>Imgenbroich-Belgenbach-Widdau-RW</name>
    <extensions>
      <gpxx:TrackExtension xmlns:gpxx="http://www.garmin.com/xmlschemas/GpxExtensions/v3" xmlns:xsi="http://www.w3.org/2001/XMLSchema-instance" xsi:schemaLocation="http://www.garmin.com/xmlschemas/GpxExtensions/v3 http://www.garmin.com/xmlschemas/GpxExtensions/v3/GpxExtensionsv3.xsd">
        <gpxx:DisplayColor>White</gpxx:DisplayColor>
      </gpxx:TrackExtension>
    </extensions>
    <trkseg>
      <trkpt lat="50.563597" lon="6.297989">
        <ele>358.700000</ele>
        <time>2009-07-19T16:53:35Z</time>
      </trkpt>
      <trkpt lat="50.563578" lon="6.297976">
        <ele>358.700000</ele>
        <time>2009-07-19T16:53:37Z</time>
      </trkpt>
      <trkpt lat="50.563575" lon="6.297972">
        <ele>360.200000</ele>
        <time>2009-07-19T16:53:37Z</time>
      </trkpt>
      <trkpt lat="50.563618" lon="6.297981">
        <ele>360.200000</ele>
        <time>2009-07-19T16:53:42Z</time>
      </trkpt>
      <trkpt lat="50.563631" lon="6.298087">
        <ele>359.200000</ele>
        <time>2009-07-19T16:53:50Z</time>
      </trkpt>
      <trkpt lat="50.563660" lon="6.298213">
        <ele>359.700000</ele>
        <time>2009-07-19T16:53:59Z</time>
      </trkpt>
      <trkpt lat="50.563669" lon="6.298217">
        <ele>359.200000</ele>
        <time>2009-07-19T16:54:00Z</time>
      </trkpt>
      <trkpt lat="50.563765" lon="6.298188">
        <ele>363.000000</ele>
        <time>2009-07-19T16:54:11Z</time>
      </trkpt>
      <trkpt lat="50.563852" lon="6.298076">
        <ele>363.500000</ele>
        <time>2009-07-19T16:54:23Z</time>
      </trkpt>
      <trkpt lat="50.563979" lon="6.298018">
        <ele>364.500000</ele>
        <time>2009-07-19T16:54:38Z</time>
      </trkpt>
      <trkpt lat="50.563995" lon="6.298019">
        <ele>364.500000</ele>
        <time>2009-07-19T16:54:40Z</time>
      </trkpt>
      <trkpt lat="50.564074" lon="6.298072">
        <ele>366.900000</ele>
        <time>2009-07-19T16:54:49Z</time>
      </trkpt>
      <trkpt lat="50.564182" lon="6.298047">
        <ele>367.400000</ele>
        <time>2009-07-19T16:55:01Z</time>
      </trkpt>
      <trkpt lat="50.564260" lon="6.298023">
        <ele>368.300000</ele>
        <time>2009-07-19T16:55:10Z</time>
      </trkpt>
      <trkpt lat="50.564258" lon="6.298042">
        <ele>369.800000</ele>
        <time>2009-07-19T16:55:11Z</time>
      </trkpt>
      <trkpt lat="50.564444" lon="6.298188">
        <ele>369.300000</ele>
        <time>2009-07-19T16:55:34Z</time>
      </trkpt>
      <trkpt lat="50.564553" lon="6.298225">
        <ele>372.600000</ele>
        <time>2009-07-19T16:55:47Z</time>
      </trkpt>
      <trkpt lat="50.564607" lon="6.298235">
        <ele>370.200000</ele>
        <time>2009-07-19T16:55:53Z</time>
      </trkpt>
      <trkpt lat="50.564732" lon="6.298106">
        <ele>371.700000</ele>
        <time>2009-07-19T16:56:09Z</time>
      </trkpt>
      <trkpt lat="50.564785" lon="6.298106">
        <ele>372.200000</ele>
        <time>2009-07-19T16:56:15Z</time>
      </trkpt>
      <trkpt lat="50.564951" lon="6.298144">
        <ele>373.100000</ele>
        <time>2009-07-19T16:56:33Z</time>
      </trkpt>
      <trkpt lat="50.565043" lon="6.298099">
        <ele>373.600000</ele>
        <time>2009-07-19T16:56:44Z</time>
      </trkpt>
      <trkpt lat="50.565080" lon="6.298047">
        <ele>374.100000</ele>
        <time>2009-07-19T16:56:50Z</time>
      </trkpt>
      <trkpt lat="50.565093" lon="6.297931">
        <ele>375.500000</ele>
        <time>2009-07-19T16:56:58Z</time>
      </trkpt>
      <trkpt lat="50.565221" lon="6.297912">
        <ele>376.000000</ele>
        <time>2009-07-19T16:57:12Z</time>
      </trkpt>
      <trkpt lat="50.565306" lon="6.297758">
        <ele>376.500000</ele>
        <time>2009-07-19T16:57:26Z</time>
      </trkpt>
      <trkpt lat="50.565347" lon="6.297702">
        <ele>376.500000</ele>
        <time>2009-07-19T16:57:32Z</time>
      </trkpt>
      <trkpt lat="50.565335" lon="6.297579">
        <ele>377.500000</ele>
        <time>2009-07-19T16:57:41Z</time>
      </trkpt>
      <trkpt lat="50.565398" lon="6.297404">
        <ele>377.900000</ele>
        <time>2009-07-19T16:57:55Z</time>
      </trkpt>
      <trkpt lat="50.565469" lon="6.297368">
        <ele>378.900000</ele>
        <time>2009-07-19T16:58:03Z</time>
      </trkpt>
      <trkpt lat="50.565522" lon="6.297249">
        <ele>380.300000</ele>
        <time>2009-07-19T16:58:14Z</time>
      </trkpt>
      <trkpt lat="50.565551" lon="6.297054">
        <ele>381.300000</ele>
        <time>2009-07-19T16:58:28Z</time>
      </trkpt>
      <trkpt lat="50.565555" lon="6.297038">
        <ele>381.800000</ele>
        <time>2009-07-19T16:58:29Z</time>
      </trkpt>
      <trkpt lat="50.565573" lon="6.296983">
        <ele>382.300000</ele>
        <time>2009-07-19T16:58:33Z</time>
      </trkpt>
      <trkpt lat="50.565637" lon="6.296930">
        <ele>383.700000</ele>
        <time>2009-07-19T16:58:41Z</time>
      </trkpt>
      <trkpt lat="50.565737" lon="6.296831">
        <ele>383.700000</ele>
        <time>2009-07-19T16:58:54Z</time>
      </trkpt>
      <trkpt lat="50.565848" lon="6.296757">
        <ele>384.200000</ele>
        <time>2009-07-19T16:59:08Z</time>
      </trkpt>
      <trkpt lat="50.565939" lon="6.296701">
        <ele>385.100000</ele>
        <time>2009-07-19T16:59:18Z</time>
      </trkpt>
      <trkpt lat="50.566136" lon="6.296753">
        <ele>386.100000</ele>
        <time>2009-07-19T16:59:40Z</time>
      </trkpt>
      <trkpt lat="50.566051" lon="6.296562">
        <ele>389.000000</ele>
        <time>2009-07-19T16:59:57Z</time>
      </trkpt>
      <trkpt lat="50.566148" lon="6.296479">
        <ele>388.000000</ele>
        <time>2009-07-19T17:00:09Z</time>
      </trkpt>
      <trkpt lat="50.566351" lon="6.296485">
        <ele>391.400000</ele>
        <time>2009-07-19T17:00:31Z</time>
      </trkpt>
      <trkpt lat="50.566429" lon="6.296463">
        <ele>391.900000</ele>
        <time>2009-07-19T17:00:40Z</time>
      </trkpt>
      <trkpt lat="50.566531" lon="6.296522">
        <ele>392.800000</ele>
        <time>2009-07-19T17:00:52Z</time>
      </trkpt>
      <trkpt lat="50.566673" lon="6.296526">
        <ele>393.300000</ele>
        <time>2009-07-19T17:01:08Z</time>
      </trkpt>
      <trkpt lat="50.566906" lon="6.296501">
        <ele>393.800000</ele>
        <time>2009-07-19T17:01:34Z</time>
      </trkpt>
      <trkpt lat="50.567031" lon="6.296550">
        <ele>395.200000</ele>
        <time>2009-07-19T17:01:48Z</time>
      </trkpt>
      <trkpt lat="50.567158" lon="6.296418">
        <ele>396.200000</ele>
        <time>2009-07-19T17:02:05Z</time>
      </trkpt>
      <trkpt lat="50.567318" lon="6.296363">
        <ele>399.600000</ele>
        <time>2009-07-19T17:02:23Z</time>
      </trkpt>
      <trkpt lat="50.567472" lon="6.296424">
        <ele>403.400000</ele>
        <time>2009-07-19T17:02:40Z</time>
      </trkpt>
      <trkpt lat="50.567480" lon="6.296449">
        <ele>402.900000</ele>
        <time>2009-07-19T17:02:42Z</time>
      </trkpt>
      <trkpt lat="50.567424" lon="6.296445">
        <ele>404.900000</ele>
        <time>2009-07-19T17:02:48Z</time>
      </trkpt>
      <trkpt lat="50.567563" lon="6.296546">
        <ele>403.900000</ele>
        <time>2009-07-19T17:03:05Z</time>
      </trkpt>
      <trkpt lat="50.567584" lon="6.296539">
        <ele>407.700000</ele>
        <time>2009-07-19T17:03:08Z</time>
      </trkpt>
      <trkpt lat="50.567597" lon="6.296551">
        <ele>406.800000</ele>
        <time>2009-07-19T17:03:09Z</time>
      </trkpt>
      <trkpt lat="50.567612" lon="6.296564">
        <ele>405.800000</ele>
        <time>2009-07-19T17:03:11Z</time>
      </trkpt>
      <trkpt lat="50.567685" lon="6.296661">
        <ele>407.300000</ele>
        <time>2009-07-19T17:03:22Z</time>
      </trkpt>
      <trkpt lat="50.567750" lon="6.296665">
        <ele>408.700000</ele>
        <time>2009-07-19T17:03:29Z</time>
      </trkpt>
      <trkpt lat="50.567955" lon="6.296830">
        <ele>411.100000</ele>
        <time>2009-07-19T17:03:54Z</time>
      </trkpt>
      <trkpt lat="50.568005" lon="6.296844">
        <ele>411.100000</ele>
        <time>2009-07-19T17:04:00Z</time>
      </trkpt>
      <trkpt lat="50.568098" lon="6.296862">
        <ele>412.100000</ele>
        <time>2009-07-19T17:04:10Z</time>
      </trkpt>
      <trkpt lat="50.568254" lon="6.296736">
        <ele>412.100000</ele>
        <time>2009-07-19T17:04:30Z</time>
      </trkpt>
      <trkpt lat="50.568192" lon="6.296786">
        <ele>414.900000</ele>
        <time>2009-07-19T17:04:37Z</time>
      </trkpt>
      <trkpt lat="50.568193" lon="6.296739">
        <ele>418.300000</ele>
        <time>2009-07-19T17:04:41Z</time>
      </trkpt>
      <trkpt lat="50.568177" lon="6.296719">
        <ele>417.300000</ele>
        <time>2009-07-19T17:04:43Z</time>
      </trkpt>
      <trkpt lat="50.568187" lon="6.296649">
        <ele>418.800000</ele>
        <time>2009-07-19T17:04:48Z</time>
      </trkpt>
      <trkpt lat="50.568421" lon="6.296631">
        <ele>421.200000</ele>
        <time>2009-07-19T17:05:14Z</time>
      </trkpt>
      <trkpt lat="50.568552" lon="6.296650">
        <ele>422.200000</ele>
        <time>2009-07-19T17:05:28Z</time>
      </trkpt>
      <trkpt lat="50.568601" lon="6.296672">
        <ele>422.600000</ele>
        <time>2009-07-19T17:05:34Z</time>
      </trkpt>
      <trkpt lat="50.568697" lon="6.296707">
        <ele>423.600000</ele>
        <time>2009-07-19T17:05:45Z</time>
      </trkpt>
      <trkpt lat="50.568824" lon="6.296767">
        <ele>425.000000</ele>
        <time>2009-07-19T17:05:59Z</time>
      </trkpt>
      <trkpt lat="50.568861" lon="6.296783">
        <ele>427.000000</ele>
        <time>2009-07-19T17:06:04Z</time>
      </trkpt>
      <trkpt lat="50.568892" lon="6.296732">
        <ele>428.900000</ele>
        <time>2009-07-19T17:06:09Z</time>
      </trkpt>
      <trkpt lat="50.568902" lon="6.296742">
        <ele>430.300000</ele>
        <time>2009-07-19T17:06:10Z</time>
      </trkpt>
      <trkpt lat="50.568896" lon="6.296761">
        <ele>433.200000</ele>
        <time>2009-07-19T17:06:11Z</time>
      </trkpt>
      <trkpt lat="50.568979" lon="6.296856">
        <ele>434.200000</ele>
        <time>2009-07-19T17:06:23Z</time>
      </trkpt>
      <trkpt lat="50.569042" lon="6.296919">
        <ele>437.500000</ele>
        <time>2009-07-19T17:06:31Z</time>
      </trkpt>
      <trkpt lat="50.569236" lon="6.296931">
        <ele>439.500000</ele>
        <time>2009-07-19T17:06:52Z</time>
      </trkpt>
      <trkpt lat="50.569240" lon="6.296760">
        <ele>440.900000</ele>
        <time>2009-07-19T17:07:04Z</time>
      </trkpt>
      <trkpt lat="50.569213" lon="6.296543">
        <ele>441.900000</ele>
        <time>2009-07-19T17:07:20Z</time>
      </trkpt>
      <trkpt lat="50.569185" lon="6.296424">
        <ele>443.800000</ele>
        <time>2009-07-19T17:07:29Z</time>
      </trkpt>
      <trkpt lat="50.569049" lon="6.296258">
        <ele>446.700000</ele>
        <time>2009-07-19T17:07:48Z</time>
      </trkpt>
      <trkpt lat="50.569023" lon="6.296186">
        <ele>448.600000</ele>
        <time>2009-07-19T17:07:54Z</time>
      </trkpt>
      <trkpt lat="50.568944" lon="6.296122">
        <ele>449.600000</ele>
        <time>2009-07-19T17:08:03Z</time>
      </trkpt>
      <trkpt lat="50.568936" lon="6.296112">
        <ele>449.100000</ele>
        <time>2009-07-19T17:08:05Z</time>
      </trkpt>
      <trkpt lat="50.568833" lon="6.296029">
        <ele>449.100000</ele>
        <time>2009-07-19T17:08:17Z</time>
      </trkpt>
      <trkpt lat="50.568732" lon="6.295962">
        <ele>448.600000</ele>
        <time>2009-07-19T17:08:29Z</time>
      </trkpt>
      <trkpt lat="50.568622" lon="6.295846">
        <ele>446.700000</ele>
        <time>2009-07-19T17:08:44Z</time>
      </trkpt>
      <trkpt lat="50.568590" lon="6.295830">
        <ele>445.700000</ele>
        <time>2009-07-19T17:08:48Z</time>
      </trkpt>
      <trkpt lat="50.568467" lon="6.295851">
        <ele>444.700000</ele>
        <time>2009-07-19T17:09:01Z</time>
      </trkpt>
      <trkpt lat="50.568357" lon="6.295805">
        <ele>442.800000</ele>
        <time>2009-07-19T17:09:14Z</time>
      </trkpt>
      <trkpt lat="50.568212" lon="6.295718">
        <ele>442.300000</ele>
        <time>2009-07-19T17:09:31Z</time>
      </trkpt>
      <trkpt lat="50.568138" lon="6.295681">
        <ele>441.400000</ele>
        <time>2009-07-19T17:09:40Z</time>
      </trkpt>
      <trkpt lat="50.568132" lon="6.295640">
        <ele>438.000000</ele>
        <time>2009-07-19T17:09:43Z</time>
      </trkpt>
      <trkpt lat="50.568097" lon="6.295573">
        <ele>437.100000</ele>
        <time>2009-07-19T17:09:49Z</time>
      </trkpt>
      <trkpt lat="50.567963" lon="6.295504">
        <ele>435.600000</ele>
        <time>2009-07-19T17:10:04Z</time>
      </trkpt>
      <trkpt lat="50.567859" lon="6.295456">
        <ele>435.100000</ele>
        <time>2009-07-19T17:10:16Z</time>
      </trkpt>
      <trkpt lat="50.567749" lon="6.295419">
        <ele>433.200000</ele>
        <time>2009-07-19T17:10:29Z</time>
      </trkpt>
      <trkpt lat="50.567655" lon="6.295425">
        <ele>430.800000</ele>
        <time>2009-07-19T17:10:39Z</time>
      </trkpt>
      <trkpt lat="50.567512" lon="6.295468">
        <ele>428.900000</ele>
        <time>2009-07-19T17:10:55Z</time>
      </trkpt>
      <trkpt lat="50.567421" lon="6.295424">
        <ele>426.000000</ele>
        <time>2009-07-19T17:11:06Z</time>
      </trkpt>
      <trkpt lat="50.567364" lon="6.295530">
        <ele>422.600000</ele>
        <time>2009-07-19T17:11:15Z</time>
      </trkpt>
      <trkpt lat="50.567266" lon="6.295565">
        <ele>420.700000</ele>
        <time>2009-07-19T17:11:27Z</time>
      </trkpt>
      <trkpt lat="50.567346" lon="6.295372">
        <ele>418.800000</ele>
        <time>2009-07-19T17:11:43Z</time>
      </trkpt>
      <trkpt lat="50.567385" lon="6.295206">
        <ele>416.900000</ele>
        <time>2009-07-19T17:11:55Z</time>
      </trkpt>
      <trkpt lat="50.567395" lon="6.295173">
        <ele>413.000000</ele>
        <time>2009-07-19T17:11:58Z</time>
      </trkpt>
      <trkpt lat="50.567391" lon="6.295156">
        <ele>420.200000</ele>
        <time>2009-07-19T17:11:59Z</time>
      </trkpt>
      <trkpt lat="50.567396" lon="6.295139">
        <ele>415.900000</ele>
        <time>2009-07-19T17:12:00Z</time>
      </trkpt>
      <trkpt lat="50.567419" lon="6.294924">
        <ele>413.500000</ele>
        <time>2009-07-19T17:12:16Z</time>
      </trkpt>
      <trkpt lat="50.567417" lon="6.294762">
        <ele>412.500000</ele>
        <time>2009-07-19T17:12:27Z</time>
      </trkpt>
      <trkpt lat="50.567386" lon="6.294632">
        <ele>411.600000</ele>
        <time>2009-07-19T17:12:37Z</time>
      </trkpt>
      <trkpt lat="50.567358" lon="6.294425">
        <ele>409.200000</ele>
        <time>2009-07-19T17:12:52Z</time>
      </trkpt>
      <trkpt lat="50.567412" lon="6.294229">
        <ele>406.800000</ele>
        <time>2009-07-19T17:13:07Z</time>
      </trkpt>
      <trkpt lat="50.567468" lon="6.294147">
        <ele>405.300000</ele>
        <time>2009-07-19T17:13:15Z</time>
      </trkpt>
      <trkpt lat="50.567482" lon="6.294097">
        <ele>403.900000</ele>
        <time>2009-07-19T17:13:19Z</time>
      </trkpt>
      <trkpt lat="50.567492" lon="6.293950">
        <ele>400.500000</ele>
        <time>2009-07-19T17:13:29Z</time>
      </trkpt>
      <trkpt lat="50.567483" lon="6.293894">
        <ele>400.000000</ele>
        <time>2009-07-19T17:13:33Z</time>
      </trkpt>
      <trkpt lat="50.567310" lon="6.293547">
        <ele>397.200000</ele>
        <time>2009-07-19T17:14:04Z</time>
      </trkpt>
      <trkpt lat="50.567257" lon="6.293357">
        <ele>395.700000</ele>
        <time>2009-07-19T17:14:19Z</time>
      </trkpt>
      <trkpt lat="50.567242" lon="6.293205">
        <ele>395.700000</ele>
        <time>2009-07-19T17:14:30Z</time>
      </trkpt>
      <trkpt lat="50.567242" lon="6.293205">
        <ele>390.000000</ele>
        <time>2009-07-19T17:14:30Z</time>
      </trkpt>
      <trkpt lat="50.567359" lon="6.292921">
        <ele>390.000000</ele>
        <time>2009-07-19T17:14:53Z</time>
      </trkpt>
      <trkpt lat="50.567558" lon="6.292751">
        <ele>389.500000</ele>
        <time>2009-07-19T17:15:18Z</time>
      </trkpt>
      <trkpt lat="50.567616" lon="6.292465">
        <ele>389.000000</ele>
        <time>2009-07-19T17:15:39Z</time>
      </trkpt>
      <trkpt lat="50.567592" lon="6.292461">
        <ele>390.900000</ele>
        <time>2009-07-19T17:15:42Z</time>
      </trkpt>
      <trkpt lat="50.567673" lon="6.292509">
        <ele>389.500000</ele>
        <time>2009-07-19T17:15:52Z</time>
      </trkpt>
      <trkpt lat="50.567832" lon="6.292501">
        <ele>390.000000</ele>
        <time>2009-07-19T17:16:09Z</time>
      </trkpt>
      <trkpt lat="50.567895" lon="6.292445">
        <ele>390.400000</ele>
        <time>2009-07-19T17:16:17Z</time>
      </trkpt>
      <trkpt lat="50.567978" lon="6.292423">
        <ele>390.900000</ele>
        <time>2009-07-19T17:16:27Z</time>
      </trkpt>
      <trkpt lat="50.568197" lon="6.292397">
        <ele>391.900000</ele>
        <time>2009-07-19T17:16:51Z</time>
      </trkpt>
      <trkpt lat="50.568420" lon="6.292285">
        <ele>391.900000</ele>
        <time>2009-07-19T17:17:17Z</time>
      </trkpt>
      <trkpt lat="50.568478" lon="6.292172">
        <ele>392.400000</ele>
        <time>2009-07-19T17:17:27Z</time>
      </trkpt>
      <trkpt lat="50.568629" lon="6.292085">
        <ele>393.300000</ele>
        <time>2009-07-19T17:17:45Z</time>
      </trkpt>
      <trkpt lat="50.568595" lon="6.291946">
        <ele>395.200000</ele>
        <time>2009-07-19T17:17:55Z</time>
      </trkpt>
      <trkpt lat="50.568677" lon="6.291867">
        <ele>395.200000</ele>
        <time>2009-07-19T17:18:06Z</time>
      </trkpt>
      <trkpt lat="50.568688" lon="6.291663">
        <ele>394.800000</ele>
        <time>2009-07-19T17:18:20Z</time>
      </trkpt>
      <trkpt lat="50.568768" lon="6.291561">
        <ele>394.300000</ele>
        <time>2009-07-19T17:18:31Z</time>
      </trkpt>
      <trkpt lat="50.568813" lon="6.291396">
        <ele>394.800000</ele>
        <time>2009-07-19T17:18:44Z</time>
      </trkpt>
      <trkpt lat="50.568797" lon="6.291227">
        <ele>395.200000</ele>
        <time>2009-07-19T17:18:56Z</time>
      </trkpt>
      <trkpt lat="50.568757" lon="6.291009">
        <ele>396.700000</ele>
        <time>2009-07-19T17:19:12Z</time>
      </trkpt>
      <trkpt lat="50.568743" lon="6.290878">
        <ele>398.100000</ele>
        <time>2009-07-19T17:19:21Z</time>
      </trkpt>
      <trkpt lat="50.568712" lon="6.290813">
        <ele>393.800000</ele>
        <time>2009-07-19T17:19:27Z</time>
      </trkpt>
      <trkpt lat="50.568713" lon="6.290807">
        <ele>402.400000</ele>
        <time>2009-07-19T17:19:27Z</time>
      </trkpt>
      <trkpt lat="50.568709" lon="6.290792">
        <ele>398.100000</ele>
        <time>2009-07-19T17:19:28Z</time>
      </trkpt>
      <trkpt lat="50.568658" lon="6.290702">
        <ele>399.600000</ele>
        <time>2009-07-19T17:19:37Z</time>
      </trkpt>
      <trkpt lat="50.568575" lon="6.290531">
        <ele>399.100000</ele>
        <time>2009-07-19T17:19:52Z</time>
      </trkpt>
      <trkpt lat="50.568498" lon="6.290401">
        <ele>400.000000</ele>
        <time>2009-07-19T17:20:04Z</time>
      </trkpt>
      <trkpt lat="50.568435" lon="6.290268">
        <ele>400.000000</ele>
        <time>2009-07-19T17:20:16Z</time>
      </trkpt>
      <trkpt lat="50.568392" lon="6.289970">
        <ele>400.500000</ele>
        <time>2009-07-19T17:20:37Z</time>
      </trkpt>
      <trkpt lat="50.568368" lon="6.289809">
        <ele>400.500000</ele>
        <time>2009-07-19T17:20:49Z</time>
      </trkpt>
      <trkpt lat="50.568275" lon="6.289578">
        <ele>401.000000</ele>
        <time>2009-07-19T17:21:08Z</time>
      </trkpt>
      <trkpt lat="50.568209" lon="6.289421">
        <ele>402.900000</ele>
        <time>2009-07-19T17:21:21Z</time>
      </trkpt>
      <trkpt lat="50.568188" lon="6.289378">
        <ele>403.900000</ele>
        <time>2009-07-19T17:21:25Z</time>
      </trkpt>
      <trkpt lat="50.568328" lon="6.289162">
        <ele>404.400000</ele>
        <time>2009-07-19T17:21:47Z</time>
      </trkpt>
      <trkpt lat="50.568505" lon="6.289015">
        <ele>402.400000</ele>
        <time>2009-07-19T17:22:09Z</time>
      </trkpt>
      <trkpt lat="50.568854" lon="6.288617">
        <ele>399.600000</ele>
        <time>2009-07-19T17:22:57Z</time>
      </trkpt>
      <trkpt lat="50.568946" lon="6.288432">
        <ele>400.500000</ele>
        <time>2009-07-19T17:23:13Z</time>
      </trkpt>
      <trkpt lat="50.569247" lon="6.288108">
        <ele>400.000000</ele>
        <time>2009-07-19T17:23:53Z</time>
      </trkpt>
      <trkpt lat="50.569305" lon="6.287969">
        <ele>401.000000</ele>
        <time>2009-07-19T17:24:05Z</time>
      </trkpt>
      <trkpt lat="50.569282" lon="6.287876">
        <ele>401.500000</ele>
        <time>2009-07-19T17:24:12Z</time>
      </trkpt>
      <trkpt lat="50.569343" lon="6.287772">
        <ele>401.000000</ele>
        <time>2009-07-19T17:24:22Z</time>
      </trkpt>
      <trkpt lat="50.569432" lon="6.287679">
        <ele>402.400000</ele>
        <time>2009-07-19T17:24:34Z</time>
      </trkpt>
      <trkpt lat="50.569466" lon="6.287474">
        <ele>402.400000</ele>
        <time>2009-07-19T17:24:49Z</time>
      </trkpt>
      <trkpt lat="50.569646" lon="6.287137">
        <ele>399.600000</ele>
        <time>2009-07-19T17:25:20Z</time>
      </trkpt>
      <trkpt lat="50.569926" lon="6.286772">
        <ele>401.500000</ele>
        <time>2009-07-19T17:26:00Z</time>
      </trkpt>
      <trkpt lat="50.570087" lon="6.286577">
        <ele>399.600000</ele>
        <time>2009-07-19T17:26:22Z</time>
      </trkpt>
      <trkpt lat="50.570094" lon="6.286535">
        <ele>403.900000</ele>
        <time>2009-07-19T17:26:25Z</time>
      </trkpt>
      <trkpt lat="50.570099" lon="6.286507">
        <ele>403.400000</ele>
        <time>2009-07-19T17:26:27Z</time>
      </trkpt>
      <trkpt lat="50.570126" lon="6.286408">
        <ele>400.000000</ele>
        <time>2009-07-19T17:26:35Z</time>
      </trkpt>
      <trkpt lat="50.570122" lon="6.286396">
        <ele>405.800000</ele>
        <time>2009-07-19T17:26:36Z</time>
      </trkpt>
      <trkpt lat="50.570123" lon="6.286340">
        <ele>402.900000</ele>
        <time>2009-07-19T17:26:40Z</time>
      </trkpt>
      <trkpt lat="50.570052" lon="6.286170">
        <ele>404.400000</ele>
        <time>2009-07-19T17:26:54Z</time>
      </trkpt>
      <trkpt lat="50.570085" lon="6.286088">
        <ele>402.900000</ele>
        <time>2009-07-19T17:27:01Z</time>
      </trkpt>
      <trkpt lat="50.570186" lon="6.285756">
        <ele>402.000000</ele>
        <time>2009-07-19T17:27:27Z</time>
      </trkpt>
      <trkpt lat="50.570195" lon="6.285498">
        <ele>402.900000</ele>
        <time>2009-07-19T17:27:45Z</time>
      </trkpt>
      <trkpt lat="50.570180" lon="6.285495">
        <ele>404.400000</ele>
        <time>2009-07-19T17:27:46Z</time>
      </trkpt>
      <trkpt lat="50.570262" lon="6.285324">
        <ele>404.400000</ele>
        <time>2009-07-19T17:28:01Z</time>
      </trkpt>
      <trkpt lat="50.570289" lon="6.285299">
        <ele>404.400000</ele>
        <time>2009-07-19T17:28:05Z</time>
      </trkpt>
      <trkpt lat="50.570326" lon="6.285207">
        <ele>404.900000</ele>
        <time>2009-07-19T17:28:12Z</time>
      </trkpt>
      <trkpt lat="50.570280" lon="6.285176">
        <ele>405.800000</ele>
        <time>2009-07-19T17:28:18Z</time>
      </trkpt>
      <trkpt lat="50.570382" lon="6.285181">
        <ele>402.900000</ele>
        <time>2009-07-19T17:28:29Z</time>
      </trkpt>
      <trkpt lat="50.570395" lon="6.285173">
        <ele>405.800000</ele>
        <time>2009-07-19T17:28:31Z</time>
      </trkpt>
      <trkpt lat="50.570383" lon="6.285122">
        <ele>400.000000</ele>
        <time>2009-07-19T17:28:34Z</time>
      </trkpt>
      <trkpt lat="50.570374" lon="6.285117">
        <ele>400.500000</ele>
        <time>2009-07-19T17:28:36Z</time>
      </trkpt>
      <trkpt lat="50.570367" lon="6.285114">
        <ele>407.300000</ele>
        <time>2009-07-19T17:28:36Z</time>
      </trkpt>
      <trkpt lat="50.570369" lon="6.285118">
        <ele>405.300000</ele>
        <time>2009-07-19T17:28:37Z</time>
      </trkpt>
      <trkpt lat="50.570381" lon="6.285127">
        <ele>406.300000</ele>
        <time>2009-07-19T17:28:38Z</time>
      </trkpt>
      <trkpt lat="50.570428" lon="6.284957">
        <ele>406.800000</ele>
        <time>2009-07-19T17:28:51Z</time>
      </trkpt>
      <trkpt lat="50.570501" lon="6.284802">
        <ele>407.700000</ele>
        <time>2009-07-19T17:29:05Z</time>
      </trkpt>
      <trkpt lat="50.570582" lon="6.284641">
        <ele>408.700000</ele>
        <time>2009-07-19T17:29:19Z</time>
      </trkpt>
      <trkpt lat="50.570623" lon="6.284564">
        <ele>408.700000</ele>
        <time>2009-07-19T17:29:26Z</time>
      </trkpt>
      <trkpt lat="50.570589" lon="6.284527">
        <ele>409.700000</ele>
        <time>2009-07-19T17:29:31Z</time>
      </trkpt>
      <trkpt lat="50.570599" lon="6.284516">
        <ele>411.600000</ele>
        <time>2009-07-19T17:29:32Z</time>
      </trkpt>
      <trkpt lat="50.570670" lon="6.284427">
        <ele>414.900000</ele>
        <time>2009-07-19T17:29:42Z</time>
      </trkpt>
      <trkpt lat="50.570703" lon="6.284399">
        <ele>415.400000</ele>
        <time>2009-07-19T17:29:46Z</time>
      </trkpt>
      <trkpt lat="50.570764" lon="6.284327">
        <ele>415.400000</ele>
        <time>2009-07-19T17:29:55Z</time>
      </trkpt>
      <trkpt lat="50.570955" lon="6.284240">
        <ele>418.300000</ele>
        <time>2009-07-19T17:30:17Z</time>
      </trkpt>
      <trkpt lat="50.570973" lon="6.284255">
        <ele>418.800000</ele>
        <time>2009-07-19T17:30:19Z</time>
      </trkpt>
      <trkpt lat="50.571088" lon="6.284208">
        <ele>419.800000</ele>
        <time>2009-07-19T17:30:32Z</time>
      </trkpt>
      <trkpt lat="50.571137" lon="6.284109">
        <ele>421.200000</ele>
        <time>2009-07-19T17:30:41Z</time>
      </trkpt>
      <trkpt lat="50.571171" lon="6.284025">
        <ele>420.200000</ele>
        <time>2009-07-19T17:30:48Z</time>
      </trkpt>
      <trkpt lat="50.571246" lon="6.283897">
        <ele>420.200000</ele>
        <time>2009-07-19T17:31:00Z</time>
      </trkpt>
      <trkpt lat="50.571383" lon="6.283798">
        <ele>419.800000</ele>
        <time>2009-07-19T17:31:17Z</time>
      </trkpt>
      <trkpt lat="50.572231" lon="6.283805">
        <ele>420.200000</ele>
        <time>2009-07-19T17:32:50Z</time>
      </trkpt>
      <trkpt lat="50.572430" lon="6.283766">
        <ele>421.700000</ele>
        <time>2009-07-19T17:33:12Z</time>
      </trkpt>
      <trkpt lat="50.572610" lon="6.283799">
        <ele>422.200000</ele>
        <time>2009-07-19T17:33:33Z</time>
      </trkpt>
      <trkpt lat="50.572741" lon="6.283902">
        <ele>424.100000</ele>
        <time>2009-07-19T17:33:49Z</time>
      </trkpt>
      <trkpt lat="50.572776" lon="6.283932">
        <ele>424.600000</ele>
        <time>2009-07-19T17:33:53Z</time>
      </trkpt>
      <trkpt lat="50.572853" lon="6.284051">
        <ele>426.000000</ele>
        <time>2009-07-19T17:34:05Z</time>
      </trkpt>
      <trkpt lat="50.572900" lon="6.284134">
        <ele>427.000000</ele>
        <time>2009-07-19T17:34:13Z</time>
      </trkpt>
      <trkpt lat="50.572933" lon="6.284257">
        <ele>428.400000</ele>
        <time>2009-07-19T17:34:22Z</time>
      </trkpt>
      <trkpt lat="50.572930" lon="6.284266">
        <ele>429.400000</ele>
        <time>2009-07-19T17:34:23Z</time>
      </trkpt>
      <trkpt lat="50.572982" lon="6.284329">
        <ele>430.800000</ele>
        <time>2009-07-19T17:34:30Z</time>
      </trkpt>
      <trkpt lat="50.573075" lon="6.284450">
        <ele>430.300000</ele>
        <time>2009-07-19T17:34:44Z</time>
      </trkpt>
      <trkpt lat="50.573067" lon="6.284515">
        <ele>429.400000</ele>
        <time>2009-07-19T17:34:48Z</time>
      </trkpt>
      <trkpt lat="50.573138" lon="6.284663">
        <ele>428.900000</ele>
        <time>2009-07-19T17:35:01Z</time>
      </trkpt>
      <trkpt lat="50.573374" lon="6.284808">
        <ele>429.400000</ele>
        <time>2009-07-19T17:35:29Z</time>
      </trkpt>
      <trkpt lat="50.573433" lon="6.284919">
        <ele>430.300000</ele>
        <time>2009-07-19T17:35:39Z</time>
      </trkpt>
      <trkpt lat="50.573492" lon="6.284722">
        <ele>430.800000</ele>
        <time>2009-07-19T17:35:55Z</time>
      </trkpt>
      <trkpt lat="50.573549" lon="6.284723">
        <ele>431.800000</ele>
        <time>2009-07-19T17:36:01Z</time>
      </trkpt>
      <trkpt lat="50.573571" lon="6.284780">
        <ele>431.800000</ele>
        <time>2009-07-19T17:36:06Z</time>
      </trkpt>
      <trkpt lat="50.573649" lon="6.284794">
        <ele>433.700000</ele>
        <time>2009-07-19T17:36:14Z</time>
      </trkpt>
      <trkpt lat="50.573633" lon="6.284736">
        <ele>433.700000</ele>
        <time>2009-07-19T17:36:19Z</time>
      </trkpt>
      <trkpt lat="50.573747" lon="6.284698">
        <ele>437.100000</ele>
        <time>2009-07-19T17:36:32Z</time>
      </trkpt>
      <trkpt lat="50.573704" lon="6.284707">
        <ele>433.700000</ele>
        <time>2009-07-19T17:36:36Z</time>
      </trkpt>
      <trkpt lat="50.573163" lon="6.284765">
        <ele>437.100000</ele>
        <time>2009-07-19T17:37:36Z</time>
      </trkpt>
      <trkpt lat="50.573206" lon="6.284758">
        <ele>437.500000</ele>
        <time>2009-07-19T17:37:41Z</time>
      </trkpt>
      <trkpt lat="50.573413" lon="6.284625">
        <ele>440.400000</ele>
        <time>2009-07-19T17:38:06Z</time>
      </trkpt>
      <trkpt lat="50.573426" lon="6.284620">
        <ele>440.400000</ele>
        <time>2009-07-19T17:38:07Z</time>
      </trkpt>
      <trkpt lat="50.573478" lon="6.284664">
        <ele>437.500000</ele>
        <time>2009-07-19T17:38:14Z</time>
      </trkpt>
      <trkpt lat="50.573479" lon="6.284664">
        <ele>437.500000</ele>
        <time>2009-07-19T17:38:14Z</time>
      </trkpt>
      <trkpt lat="50.573453" lon="6.284657">
        <ele>440.900000</ele>
        <time>2009-07-19T17:38:17Z</time>
      </trkpt>
      <trkpt lat="50.573353" lon="6.284670">
        <ele>443.800000</ele>
        <time>2009-07-19T17:38:28Z</time>
      </trkpt>
      <trkpt lat="50.573351" lon="6.284672">
        <ele>439.900000</ele>
        <time>2009-07-19T17:38:28Z</time>
      </trkpt>
      <trkpt lat="50.573326" lon="6.284686">
        <ele>443.800000</ele>
        <time>2009-07-19T17:38:31Z</time>
      </trkpt>
      <trkpt lat="50.573139" lon="6.284760">
        <ele>443.800000</ele>
        <time>2009-07-19T17:38:52Z</time>
      </trkpt>
      <trkpt lat="50.573346" lon="6.284755">
        <ele>446.200000</ele>
        <time>2009-07-19T17:39:15Z</time>
      </trkpt>
      <trkpt lat="50.573426" lon="6.284732">
        <ele>445.700000</ele>
        <time>2009-07-19T17:39:24Z</time>
      </trkpt>
      <trkpt lat="50.573453" lon="6.284716">
        <ele>451.000000</ele>
        <time>2009-07-19T17:39:27Z</time>
      </trkpt>
      <trkpt lat="50.573467" lon="6.284711">
        <ele>447.200000</ele>
        <time>2009-07-19T17:39:29Z</time>
      </trkpt>
      <trkpt lat="50.573550" lon="6.284672">
        <ele>449.600000</ele>
        <time>2009-07-19T17:39:39Z</time>
      </trkpt>
      <trkpt lat="50.573574" lon="6.284663">
        <ele>448.100000</ele>
        <time>2009-07-19T17:39:41Z</time>
      </trkpt>
      <trkpt lat="50.573843" lon="6.284660">
        <ele>448.100000</ele>
        <time>2009-07-19T17:40:11Z</time>
      </trkpt>
      <trkpt lat="50.573920" lon="6.284683">
        <ele>446.700000</ele>
        <time>2009-07-19T17:40:20Z</time>
      </trkpt>
      <trkpt lat="50.573916" lon="6.284677">
        <ele>451.500000</ele>
        <time>2009-07-19T17:40:20Z</time>
      </trkpt>
      <trkpt lat="50.573900" lon="6.284678">
        <ele>444.700000</ele>
        <time>2009-07-19T17:40:22Z</time>
      </trkpt>
      <trkpt lat="50.573852" lon="6.284680">
        <ele>449.600000</ele>
        <time>2009-07-19T17:40:27Z</time>
      </trkpt>
      <trkpt lat="50.573632" lon="6.284651">
        <ele>448.600000</ele>
        <time>2009-07-19T17:40:52Z</time>
      </trkpt>
      <trkpt lat="50.573734" lon="6.284561">
        <ele>449.100000</ele>
        <time>2009-07-19T17:41:05Z</time>
      </trkpt>
      <trkpt lat="50.573732" lon="6.284533">
        <ele>450.500000</ele>
        <time>2009-07-19T17:41:07Z</time>
      </trkpt>
      <trkpt lat="50.573787" lon="6.284418">
        <ele>450.500000</ele>
        <time>2009-07-19T17:41:17Z</time>
      </trkpt>
      <trkpt lat="50.573888" lon="6.284360">
        <ele>450.500000</ele>
        <time>2009-07-19T17:41:29Z</time>
      </trkpt>
      <trkpt lat="50.574012" lon="6.284122">
        <ele>452.900000</ele>
        <time>2009-07-19T17:41:50Z</time>
      </trkpt>
      <trkpt lat="50.574081" lon="6.284083">
        <ele>454.400000</ele>
        <time>2009-07-19T17:41:58Z</time>
      </trkpt>
      <trkpt lat="50.574158" lon="6.283948">
        <ele>456.300000</ele>
        <time>2009-07-19T17:42:11Z</time>
      </trkpt>
      <trkpt lat="50.574296" lon="6.283796">
        <ele>458.200000</ele>
        <time>2009-07-19T17:42:30Z</time>
      </trkpt>
      <trkpt lat="50.574321" lon="6.283704">
        <ele>459.600000</ele>
        <time>2009-07-19T17:42:37Z</time>
      </trkpt>
      <trkpt lat="50.574293" lon="6.283575">
        <ele>460.100000</ele>
        <time>2009-07-19T17:42:46Z</time>
      </trkpt>
      <trkpt lat="50.574312" lon="6.283496">
        <ele>460.600000</ele>
        <time>2009-07-19T17:42:52Z</time>
      </trkpt>
      <trkpt lat="50.574294" lon="6.283454">
        <ele>462.100000</ele>
        <time>2009-07-19T17:42:56Z</time>
      </trkpt>
      <trkpt lat="50.574312" lon="6.283336">
        <ele>463.000000</ele>
        <time>2009-07-19T17:43:04Z</time>
      </trkpt>
      <trkpt lat="50.574272" lon="6.283210">
        <ele>464.500000</ele>
        <time>2009-07-19T17:43:14Z</time>
      </trkpt>
      <trkpt lat="50.574260" lon="6.283039">
        <ele>466.400000</ele>
        <time>2009-07-19T17:43:26Z</time>
      </trkpt>
      <trkpt lat="50.574224" lon="6.282901">
        <ele>467.800000</ele>
        <time>2009-07-19T17:43:37Z</time>
      </trkpt>
      <trkpt lat="50.574212" lon="6.282815">
        <ele>469.300000</ele>
        <time>2009-07-19T17:43:43Z</time>
      </trkpt>
      <trkpt lat="50.574173" lon="6.282709">
        <ele>471.200000</ele>
        <time>2009-07-19T17:43:51Z</time>
      </trkpt>
      <trkpt lat="50.574145" lon="6.282576">
        <ele>472.600000</ele>
        <time>2009-07-19T17:44:01Z</time>
      </trkpt>
      <trkpt lat="50.574177" lon="6.282462">
        <ele>474.100000</ele>
        <time>2009-07-19T17:44:10Z</time>
      </trkpt>
      <trkpt lat="50.574158" lon="6.282381">
        <ele>476.500000</ele>
        <time>2009-07-19T17:44:16Z</time>
      </trkpt>
      <trkpt lat="50.574105" lon="6.282261">
        <ele>477.900000</ele>
        <time>2009-07-19T17:44:26Z</time>
      </trkpt>
      <trkpt lat="50.574098" lon="6.282250">
        <ele>479.400000</ele>
        <time>2009-07-19T17:44:27Z</time>
      </trkpt>
      <trkpt lat="50.574090" lon="6.282130">
        <ele>480.800000</ele>
        <time>2009-07-19T17:44:36Z</time>
      </trkpt>
      <trkpt lat="50.574147" lon="6.281826">
        <ele>482.700000</ele>
        <time>2009-07-19T17:44:58Z</time>
      </trkpt>
      <trkpt lat="50.574160" lon="6.281657">
        <ele>483.200000</ele>
        <time>2009-07-19T17:45:10Z</time>
      </trkpt>
      <trkpt lat="50.574165" lon="6.281506">
        <ele>483.200000</ele>
        <time>2009-07-19T17:45:21Z</time>
      </trkpt>
      <trkpt lat="50.574143" lon="6.281424">
        <ele>483.200000</ele>
        <time>2009-07-19T17:45:27Z</time>
      </trkpt>
      <trkpt lat="50.574084" lon="6.281472">
        <ele>483.700000</ele>
        <time>2009-07-19T17:45:34Z</time>
      </trkpt>
      <trkpt lat="50.574128" lon="6.281400">
        <ele>483.200000</ele>
        <time>2009-07-19T17:45:41Z</time>
      </trkpt>
      <trkpt lat="50.574206" lon="6.281474">
        <ele>482.700000</ele>
        <time>2009-07-19T17:45:51Z</time>
      </trkpt>
      <trkpt lat="50.574191" lon="6.281503">
        <ele>483.200000</ele>
        <time>2009-07-19T17:45:54Z</time>
      </trkpt>
      <trkpt lat="50.574224" lon="6.281502">
        <ele>483.700000</ele>
        <time>2009-07-19T17:45:58Z</time>
      </trkpt>
      <trkpt lat="50.574202" lon="6.281488">
        <ele>482.700000</ele>
        <time>2009-07-19T17:46:00Z</time>
      </trkpt>
      <trkpt lat="50.574220" lon="6.281426">
        <ele>483.200000</ele>
        <time>2009-07-19T17:46:05Z</time>
      </trkpt>
      <trkpt lat="50.574188" lon="6.281431">
        <ele>482.700000</ele>
        <time>2009-07-19T17:46:09Z</time>
      </trkpt>
      <trkpt lat="50.574196" lon="6.281331">
        <ele>482.700000</ele>
        <time>2009-07-19T17:46:16Z</time>
      </trkpt>
      <trkpt lat="50.574197" lon="6.281208">
        <ele>483.200000</ele>
        <time>2009-07-19T17:46:24Z</time>
      </trkpt>
      <trkpt lat="50.574237" lon="6.281071">
        <ele>483.200000</ele>
        <time>2009-07-19T17:46:35Z</time>
      </trkpt>
      <trkpt lat="50.574302" lon="6.280893">
        <ele>483.700000</ele>
        <time>2009-07-19T17:46:49Z</time>
      </trkpt>
      <trkpt lat="50.574379" lon="6.280712">
        <ele>483.700000</ele>
        <time>2009-07-19T17:47:05Z</time>
      </trkpt>
      <trkpt lat="50.574407" lon="6.280643">
        <ele>484.200000</ele>
        <time>2009-07-19T17:47:10Z</time>
      </trkpt>
      <trkpt lat="50.574471" lon="6.280480">
        <ele>484.600000</ele>
        <time>2009-07-19T17:47:24Z</time>
      </trkpt>
      <trkpt lat="50.574538" lon="6.280374">
        <ele>484.200000</ele>
        <time>2009-07-19T17:47:34Z</time>
      </trkpt>
      <trkpt lat="50.574599" lon="6.280215">
        <ele>483.700000</ele>
        <time>2009-07-19T17:47:47Z</time>
      </trkpt>
      <trkpt lat="50.574681" lon="6.280068">
        <ele>484.200000</ele>
        <time>2009-07-19T17:48:01Z</time>
      </trkpt>
      <trkpt lat="50.574808" lon="6.279955">
        <ele>484.200000</ele>
        <time>2009-07-19T17:48:17Z</time>
      </trkpt>
      <trkpt lat="50.574889" lon="6.279888">
        <ele>484.200000</ele>
        <time>2009-07-19T17:48:27Z</time>
      </trkpt>
      <trkpt lat="50.575064" lon="6.279827">
        <ele>483.200000</ele>
        <time>2009-07-19T17:48:47Z</time>
      </trkpt>
      <trkpt lat="50.575184" lon="6.279753">
        <ele>483.200000</ele>
        <time>2009-07-19T17:49:01Z</time>
      </trkpt>
      <trkpt lat="50.575288" lon="6.279672">
        <ele>482.200000</ele>
        <time>2009-07-19T17:49:14Z</time>
      </trkpt>
      <trkpt lat="50.575471" lon="6.279550">
        <ele>482.700000</ele>
        <time>2009-07-19T17:49:36Z</time>
      </trkpt>
      <trkpt lat="50.575596" lon="6.279450">
        <ele>482.700000</ele>
        <time>2009-07-19T17:49:51Z</time>
      </trkpt>
      <trkpt lat="50.575714" lon="6.279402">
        <ele>482.200000</ele>
        <time>2009-07-19T17:50:05Z</time>
      </trkpt>
      <trkpt lat="50.575871" lon="6.279324">
        <ele>481.800000</ele>
        <time>2009-07-19T17:50:23Z</time>
      </trkpt>
      <trkpt lat="50.576058" lon="6.279260">
        <ele>481.800000</ele>
        <time>2009-07-19T17:50:44Z</time>
      </trkpt>
      <trkpt lat="50.576241" lon="6.279157">
        <ele>481.800000</ele>
        <time>2009-07-19T17:51:06Z</time>
      </trkpt>
      <trkpt lat="50.576398" lon="6.279099">
        <ele>481.300000</ele>
        <time>2009-07-19T17:51:24Z</time>
      </trkpt>
      <trkpt lat="50.576518" lon="6.279020">
        <ele>480.800000</ele>
        <time>2009-07-19T17:51:38Z</time>
      </trkpt>
      <trkpt lat="50.576584" lon="6.278986">
        <ele>480.800000</ele>
        <time>2009-07-19T17:51:46Z</time>
      </trkpt>
      <trkpt lat="50.576642" lon="6.278928">
        <ele>480.800000</ele>
        <time>2009-07-19T17:51:53Z</time>
      </trkpt>
      <trkpt lat="50.576770" lon="6.278741">
        <ele>481.300000</ele>
        <time>2009-07-19T17:52:13Z</time>
      </trkpt>
      <trkpt lat="50.576855" lon="6.278660">
        <ele>481.300000</ele>
        <time>2009-07-19T17:52:24Z</time>
      </trkpt>
      <trkpt lat="50.576992" lon="6.278472">
        <ele>481.800000</ele>
        <time>2009-07-19T17:52:44Z</time>
      </trkpt>
      <trkpt lat="50.577086" lon="6.278354">
        <ele>481.800000</ele>
        <time>2009-07-19T17:52:57Z</time>
      </trkpt>
      <trkpt lat="50.577135" lon="6.278301">
        <ele>481.800000</ele>
        <time>2009-07-19T17:53:03Z</time>
      </trkpt>
      <trkpt lat="50.577240" lon="6.278144">
        <ele>481.800000</ele>
        <time>2009-07-19T17:53:19Z</time>
      </trkpt>
      <trkpt lat="50.577384" lon="6.277922">
        <ele>481.800000</ele>
        <time>2009-07-19T17:53:42Z</time>
      </trkpt>
      <trkpt lat="50.577497" lon="6.277745">
        <ele>481.300000</ele>
        <time>2009-07-19T17:53:59Z</time>
      </trkpt>
      <trkpt lat="50.577623" lon="6.277554">
        <ele>481.300000</ele>
        <time>2009-07-19T17:54:19Z</time>
      </trkpt>
      <trkpt lat="50.577710" lon="6.277458">
        <ele>480.800000</ele>
        <time>2009-07-19T17:54:30Z</time>
      </trkpt>
      <trkpt lat="50.577793" lon="6.277375">
        <ele>480.800000</ele>
        <time>2009-07-19T17:54:41Z</time>
      </trkpt>
      <trkpt lat="50.577880" lon="6.277229">
        <ele>480.300000</ele>
        <time>2009-07-19T17:54:55Z</time>
      </trkpt>
      <trkpt lat="50.577941" lon="6.277087">
        <ele>478.900000</ele>
        <time>2009-07-19T17:55:07Z</time>
      </trkpt>
      <trkpt lat="50.578036" lon="6.277125">
        <ele>478.400000</ele>
        <time>2009-07-19T17:55:18Z</time>
      </trkpt>
      <trkpt lat="50.578080" lon="6.277217">
        <ele>478.400000</ele>
        <time>2009-07-19T17:55:26Z</time>
      </trkpt>
      <trkpt lat="50.577993" lon="6.277375">
        <ele>477.900000</ele>
        <time>2009-07-19T17:55:41Z</time>
      </trkpt>
      <trkpt lat="50.577982" lon="6.277290">
        <ele>477.000000</ele>
        <time>2009-07-19T17:55:47Z</time>
      </trkpt>
      <trkpt lat="50.578004" lon="6.277238">
        <ele>477.000000</ele>
        <time>2009-07-19T17:55:51Z</time>
      </trkpt>
      <trkpt lat="50.578003" lon="6.277219">
        <ele>477.900000</ele>
        <time>2009-07-19T17:55:53Z</time>
      </trkpt>
      <trkpt lat="50.578008" lon="6.277192">
        <ele>477.000000</ele>
        <time>2009-07-19T17:55:55Z</time>
      </trkpt>
      <trkpt lat="50.577966" lon="6.277249">
        <ele>480.300000</ele>
        <time>2009-07-19T17:56:01Z</time>
      </trkpt>
      <trkpt lat="50.577964" lon="6.277253">
        <ele>476.500000</ele>
        <time>2009-07-19T17:56:01Z</time>
      </trkpt>
      <trkpt lat="50.577967" lon="6.277250">
        <ele>480.300000</ele>
        <time>2009-07-19T17:56:01Z</time>
      </trkpt>
      <trkpt lat="50.577979" lon="6.277246">
        <ele>477.000000</ele>
        <time>2009-07-19T17:56:03Z</time>
      </trkpt>
      <trkpt lat="50.577927" lon="6.277324">
        <ele>480.800000</ele>
        <time>2009-07-19T17:56:11Z</time>
      </trkpt>
      <trkpt lat="50.577829" lon="6.277392">
        <ele>477.000000</ele>
        <time>2009-07-19T17:56:23Z</time>
      </trkpt>
      <trkpt lat="50.577915" lon="6.277270">
        <ele>480.300000</ele>
        <time>2009-07-19T17:56:35Z</time>
      </trkpt>
      <trkpt lat="50.577968" lon="6.277213">
        <ele>480.300000</ele>
        <time>2009-07-19T17:56:42Z</time>
      </trkpt>
      <trkpt lat="50.578023" lon="6.277136">
        <ele>480.800000</ele>
        <time>2009-07-19T17:56:51Z</time>
      </trkpt>
      <trkpt lat="50.578141" lon="6.276992">
        <ele>481.800000</ele>
        <time>2009-07-19T17:57:07Z</time>
      </trkpt>
      <trkpt lat="50.578243" lon="6.276916">
        <ele>483.700000</ele>
        <time>2009-07-19T17:57:20Z</time>
      </trkpt>
      <trkpt lat="50.578241" lon="6.276913">
        <ele>484.200000</ele>
        <time>2009-07-19T17:57:20Z</time>
      </trkpt>
      <trkpt lat="50.578310" lon="6.276816">
        <ele>484.600000</ele>
        <time>2009-07-19T17:57:30Z</time>
      </trkpt>
      <trkpt lat="50.578508" lon="6.276698">
        <ele>486.100000</ele>
        <time>2009-07-19T17:57:53Z</time>
      </trkpt>
      <trkpt lat="50.578637" lon="6.276691">
        <ele>486.600000</ele>
        <time>2009-07-19T17:58:08Z</time>
      </trkpt>
      <trkpt lat="50.578818" lon="6.276702">
        <ele>486.100000</ele>
        <time>2009-07-19T17:58:28Z</time>
      </trkpt>
      <trkpt lat="50.578858" lon="6.276656">
        <ele>486.100000</ele>
        <time>2009-07-19T17:58:33Z</time>
      </trkpt>
      <trkpt lat="50.578877" lon="6.276642">
        <ele>486.100000</ele>
        <time>2009-07-19T17:58:35Z</time>
      </trkpt>
      <trkpt lat="50.579032" lon="6.276566">
        <ele>486.600000</ele>
        <time>2009-07-19T17:58:53Z</time>
      </trkpt>
      <trkpt lat="50.579152" lon="6.276448">
        <ele>487.500000</ele>
        <time>2009-07-19T17:59:09Z</time>
      </trkpt>
      <trkpt lat="50.579319" lon="6.276394">
        <ele>487.500000</ele>
        <time>2009-07-19T17:59:28Z</time>
      </trkpt>
      <trkpt lat="50.579462" lon="6.276287">
        <ele>488.000000</ele>
        <time>2009-07-19T17:59:45Z</time>
      </trkpt>
      <trkpt lat="50.579613" lon="6.276247">
        <ele>488.000000</ele>
        <time>2009-07-19T18:00:02Z</time>
      </trkpt>
      <trkpt lat="50.579632" lon="6.276230">
        <ele>488.500000</ele>
        <time>2009-07-19T18:00:05Z</time>
      </trkpt>
      <trkpt lat="50.579750" lon="6.276209">
        <ele>487.500000</ele>
        <time>2009-07-19T18:00:18Z</time>
      </trkpt>
      <trkpt lat="50.579829" lon="6.276173">
        <ele>489.400000</ele>
        <time>2009-07-19T18:00:27Z</time>
      </trkpt>
      <trkpt lat="50.580001" lon="6.276086">
        <ele>491.400000</ele>
        <time>2009-07-19T18:00:47Z</time>
      </trkpt>
      <trkpt lat="50.580109" lon="6.276054">
        <ele>494.300000</ele>
        <time>2009-07-19T18:00:59Z</time>
      </trkpt>
      <trkpt lat="50.580201" lon="6.275981">
        <ele>497.600000</ele>
        <time>2009-07-19T18:01:10Z</time>
      </trkpt>
      <trkpt lat="50.580322" lon="6.275925">
        <ele>499.100000</ele>
        <time>2009-07-19T18:01:24Z</time>
      </trkpt>
      <trkpt lat="50.580367" lon="6.275943">
        <ele>500.500000</ele>
        <time>2009-07-19T18:01:29Z</time>
      </trkpt>
      <trkpt lat="50.580498" lon="6.275878">
        <ele>501.900000</ele>
        <time>2009-07-19T18:01:45Z</time>
      </trkpt>
      <trkpt lat="50.580591" lon="6.275847">
        <ele>504.800000</ele>
        <time>2009-07-19T18:01:55Z</time>
      </trkpt>
      <trkpt lat="50.580684" lon="6.275742">
        <ele>506.800000</ele>
        <time>2009-07-19T18:02:08Z</time>
      </trkpt>
      <trkpt lat="50.580667" lon="6.275612">
        <ele>507.700000</ele>
        <time>2009-07-19T18:02:17Z</time>
      </trkpt>
      <trkpt lat="50.580663" lon="6.275499">
        <ele>509.200000</ele>
        <time>2009-07-19T18:02:25Z</time>
      </trkpt>
      <trkpt lat="50.580671" lon="6.275387">
        <ele>511.100000</ele>
        <time>2009-07-19T18:02:33Z</time>
      </trkpt>
      <trkpt lat="50.580705" lon="6.275346">
        <ele>513.000000</ele>
        <time>2009-07-19T18:02:38Z</time>
      </trkpt>
      <trkpt lat="50.580716" lon="6.275334">
        <ele>511.600000</ele>
        <time>2009-07-19T18:02:39Z</time>
      </trkpt>
      <trkpt lat="50.580742" lon="6.275173">
        <ele>514.000000</ele>
        <time>2009-07-19T18:02:51Z</time>
      </trkpt>
      <trkpt lat="50.580789" lon="6.275028">
        <ele>515.900000</ele>
        <time>2009-07-19T18:03:02Z</time>
      </trkpt>
      <trkpt lat="50.580815" lon="6.274840">
        <ele>519.200000</ele>
        <time>2009-07-19T18:03:16Z</time>
      </trkpt>
      <trkpt lat="50.580796" lon="6.274736">
        <ele>520.700000</ele>
        <time>2009-07-19T18:03:23Z</time>
      </trkpt>
      <trkpt lat="50.580868" lon="6.274703">
        <ele>520.200000</ele>
        <time>2009-07-19T18:03:31Z</time>
      </trkpt>
      <trkpt lat="50.580986" lon="6.274684">
        <ele>521.200000</ele>
        <time>2009-07-19T18:03:44Z</time>
      </trkpt>
      <trkpt lat="50.581096" lon="6.274670">
        <ele>520.700000</ele>
        <time>2009-07-19T18:03:57Z</time>
      </trkpt>
      <trkpt lat="50.581191" lon="6.274647">
        <ele>520.700000</ele>
        <time>2009-07-19T18:04:07Z</time>
      </trkpt>
      <trkpt lat="50.581338" lon="6.274565">
        <ele>521.700000</ele>
        <time>2009-07-19T18:04:25Z</time>
      </trkpt>
      <trkpt lat="50.581495" lon="6.274510">
        <ele>522.600000</ele>
        <time>2009-07-19T18:04:42Z</time>
      </trkpt>
      <trkpt lat="50.581654" lon="6.274493">
        <ele>522.600000</ele>
        <time>2009-07-19T18:05:00Z</time>
      </trkpt>
      <trkpt lat="50.581775" lon="6.274475">
        <ele>523.100000</ele>
        <time>2009-07-19T18:05:13Z</time>
      </trkpt>
      <trkpt lat="50.581867" lon="6.274454">
        <ele>523.100000</ele>
        <time>2009-07-19T18:05:24Z</time>
      </trkpt>
      <trkpt lat="50.581994" lon="6.274397">
        <ele>524.100000</ele>
        <time>2009-07-19T18:05:38Z</time>
      </trkpt>
      <trkpt lat="50.582121" lon="6.274390">
        <ele>524.100000</ele>
        <time>2009-07-19T18:05:52Z</time>
      </trkpt>
      <trkpt lat="50.582217" lon="6.274378">
        <ele>524.500000</ele>
        <time>2009-07-19T18:06:03Z</time>
      </trkpt>
      <trkpt lat="50.582333" lon="6.274354">
        <ele>525.500000</ele>
        <time>2009-07-19T18:06:16Z</time>
      </trkpt>
      <trkpt lat="50.582441" lon="6.274303">
        <ele>525.000000</ele>
        <time>2009-07-19T18:06:28Z</time>
      </trkpt>
      <trkpt lat="50.582569" lon="6.274199">
        <ele>526.000000</ele>
        <time>2009-07-19T18:06:44Z</time>
      </trkpt>
      <trkpt lat="50.582691" lon="6.274061">
        <ele>526.500000</ele>
        <time>2009-07-19T18:07:01Z</time>
      </trkpt>
      <trkpt lat="50.582779" lon="6.273941">
        <ele>527.400000</ele>
        <time>2009-07-19T18:07:14Z</time>
      </trkpt>
      <trkpt lat="50.582875" lon="6.273840">
        <ele>526.000000</ele>
        <time>2009-07-19T18:07:26Z</time>
      </trkpt>
      <trkpt lat="50.583024" lon="6.273745">
        <ele>526.900000</ele>
        <time>2009-07-19T18:07:44Z</time>
      </trkpt>
      <trkpt lat="50.583091" lon="6.273672">
        <ele>527.900000</ele>
        <time>2009-07-19T18:07:53Z</time>
      </trkpt>
      <trkpt lat="50.583187" lon="6.273479">
        <ele>526.900000</ele>
        <time>2009-07-19T18:08:10Z</time>
      </trkpt>
      <trkpt lat="50.583272" lon="6.273317">
        <ele>526.500000</ele>
        <time>2009-07-19T18:08:25Z</time>
      </trkpt>
      <trkpt lat="50.583343" lon="6.273165">
        <ele>526.500000</ele>
        <time>2009-07-19T18:08:38Z</time>
      </trkpt>
      <trkpt lat="50.583480" lon="6.272972">
        <ele>526.000000</ele>
        <time>2009-07-19T18:08:59Z</time>
      </trkpt>
      <trkpt lat="50.583555" lon="6.272747">
        <ele>526.500000</ele>
        <time>2009-07-19T18:09:16Z</time>
      </trkpt>
      <trkpt lat="50.583668" lon="6.272573">
        <ele>526.900000</ele>
        <time>2009-07-19T18:09:34Z</time>
      </trkpt>
      <trkpt lat="50.583730" lon="6.272446">
        <ele>527.400000</ele>
        <time>2009-07-19T18:09:45Z</time>
      </trkpt>
      <trkpt lat="50.583788" lon="6.272261">
        <ele>527.900000</ele>
        <time>2009-07-19T18:10:00Z</time>
      </trkpt>
      <trkpt lat="50.583832" lon="6.272080">
        <ele>527.400000</ele>
        <time>2009-07-19T18:10:13Z</time>
      </trkpt>
      <trkpt lat="50.583893" lon="6.271896">
        <ele>526.000000</ele>
        <time>2009-07-19T18:10:28Z</time>
      </trkpt>
      <trkpt lat="50.583912" lon="6.271828">
        <ele>526.000000</ele>
        <time>2009-07-19T18:10:33Z</time>
      </trkpt>
      <trkpt lat="50.583979" lon="6.271711">
        <ele>524.500000</ele>
        <time>2009-07-19T18:10:44Z</time>
      </trkpt>
      <trkpt lat="50.584029" lon="6.271645">
        <ele>524.500000</ele>
        <time>2009-07-19T18:10:51Z</time>
      </trkpt>
      <trkpt lat="50.584098" lon="6.271836">
        <ele>523.100000</ele>
        <time>2009-07-19T18:11:07Z</time>
      </trkpt>
      <trkpt lat="50.584128" lon="6.271985">
        <ele>520.700000</ele>
        <time>2009-07-19T18:11:18Z</time>
      </trkpt>
      <trkpt lat="50.584172" lon="6.272154">
        <ele>519.200000</ele>
        <time>2009-07-19T18:11:30Z</time>
      </trkpt>
      <trkpt lat="50.584197" lon="6.272312">
        <ele>518.300000</ele>
        <time>2009-07-19T18:11:42Z</time>
      </trkpt>
      <trkpt lat="50.584229" lon="6.272449">
        <ele>517.800000</ele>
        <time>2009-07-19T18:11:52Z</time>
      </trkpt>
      <trkpt lat="50.584307" lon="6.272674">
        <ele>518.300000</ele>
        <time>2009-07-19T18:12:10Z</time>
      </trkpt>
      <trkpt lat="50.584386" lon="6.272923">
        <ele>516.400000</ele>
        <time>2009-07-19T18:12:30Z</time>
      </trkpt>
      <trkpt lat="50.584487" lon="6.273135">
        <ele>517.300000</ele>
        <time>2009-07-19T18:12:48Z</time>
      </trkpt>
      <trkpt lat="50.584591" lon="6.273376">
        <ele>516.800000</ele>
        <time>2009-07-19T18:13:09Z</time>
      </trkpt>
      <trkpt lat="50.584716" lon="6.273560">
        <ele>519.200000</ele>
        <time>2009-07-19T18:13:27Z</time>
      </trkpt>
      <trkpt lat="50.584651" lon="6.273599">
        <ele>518.800000</ele>
        <time>2009-07-19T18:13:35Z</time>
      </trkpt>
      <trkpt lat="50.584606" lon="6.273636">
        <ele>518.800000</ele>
        <time>2009-07-19T18:13:41Z</time>
      </trkpt>
      <trkpt lat="50.584583" lon="6.273641">
        <ele>519.200000</ele>
        <time>2009-07-19T18:13:43Z</time>
      </trkpt>
      <trkpt lat="50.584515" lon="6.273610">
        <ele>520.200000</ele>
        <time>2009-07-19T18:13:51Z</time>
      </trkpt>
      <trkpt lat="50.584515" lon="6.273595">
        <ele>519.700000</ele>
        <time>2009-07-19T18:13:52Z</time>
      </trkpt>
      <trkpt lat="50.584517" lon="6.273593">
        <ele>518.300000</ele>
        <time>2009-07-19T18:13:52Z</time>
      </trkpt>
      <trkpt lat="50.584517" lon="6.273592">
        <ele>521.700000</ele>
        <time>2009-07-19T18:13:53Z</time>
      </trkpt>
      <trkpt lat="50.584518" lon="6.273591">
        <ele>517.300000</ele>
        <time>2009-07-19T18:13:53Z</time>
      </trkpt>
      <trkpt lat="50.584518" lon="6.273590">
        <ele>520.700000</ele>
        <time>2009-07-19T18:13:53Z</time>
      </trkpt>
      <trkpt lat="50.584519" lon="6.273589">
        <ele>517.300000</ele>
        <time>2009-07-19T18:13:53Z</time>
      </trkpt>
      <trkpt lat="50.584521" lon="6.273583">
        <ele>521.200000</ele>
        <time>2009-07-19T18:13:53Z</time>
      </trkpt>
      <trkpt lat="50.584520" lon="6.273583">
        <ele>517.300000</ele>
        <time>2009-07-19T18:13:53Z</time>
      </trkpt>
      <trkpt lat="50.584516" lon="6.273585">
        <ele>521.200000</ele>
        <time>2009-07-19T18:13:53Z</time>
      </trkpt>
      <trkpt lat="50.584465" lon="6.273589">
        <ele>517.800000</ele>
        <time>2009-07-19T18:13:59Z</time>
      </trkpt>
      <trkpt lat="50.584457" lon="6.273584">
        <ele>517.300000</ele>
        <time>2009-07-19T18:14:00Z</time>
      </trkpt>
      <trkpt lat="50.584365" lon="6.273638">
        <ele>518.300000</ele>
        <time>2009-07-19T18:14:11Z</time>
      </trkpt>
      <trkpt lat="50.584219" lon="6.273789">
        <ele>516.800000</ele>
        <time>2009-07-19T18:14:30Z</time>
      </trkpt>
      <trkpt lat="50.584082" lon="6.274001">
        <ele>516.400000</ele>
        <time>2009-07-19T18:14:51Z</time>
      </trkpt>
      <trkpt lat="50.584004" lon="6.274192">
        <ele>516.400000</ele>
        <time>2009-07-19T18:15:07Z</time>
      </trkpt>
      <trkpt lat="50.583945" lon="6.274374">
        <ele>516.400000</ele>
        <time>2009-07-19T18:15:22Z</time>
      </trkpt>
      <trkpt lat="50.583950" lon="6.274389">
        <ele>515.400000</ele>
        <time>2009-07-19T18:15:23Z</time>
      </trkpt>
      <trkpt lat="50.583976" lon="6.274424">
        <ele>515.900000</ele>
        <time>2009-07-19T18:15:27Z</time>
      </trkpt>
      <trkpt lat="50.584077" lon="6.274562">
        <ele>515.900000</ele>
        <time>2009-07-19T18:15:41Z</time>
      </trkpt>
      <trkpt lat="50.584116" lon="6.274622">
        <ele>516.800000</ele>
        <time>2009-07-19T18:15:47Z</time>
      </trkpt>
      <trkpt lat="50.584241" lon="6.274775">
        <ele>517.300000</ele>
        <time>2009-07-19T18:16:05Z</time>
      </trkpt>
      <trkpt lat="50.584341" lon="6.274966">
        <ele>517.800000</ele>
        <time>2009-07-19T18:16:22Z</time>
      </trkpt>
      <trkpt lat="50.584372" lon="6.275046">
        <ele>518.300000</ele>
        <time>2009-07-19T18:16:29Z</time>
      </trkpt>
      <trkpt lat="50.584376" lon="6.275075">
        <ele>519.700000</ele>
        <time>2009-07-19T18:16:31Z</time>
      </trkpt>
      <trkpt lat="50.584307" lon="6.275138">
        <ele>519.700000</ele>
        <time>2009-07-19T18:16:40Z</time>
      </trkpt>
      <trkpt lat="50.584385" lon="6.275071">
        <ele>524.100000</ele>
        <time>2009-07-19T18:16:50Z</time>
      </trkpt>
      <trkpt lat="50.584388" lon="6.275065">
        <ele>520.700000</ele>
        <time>2009-07-19T18:16:50Z</time>
      </trkpt>
      <trkpt lat="50.584435" lon="6.274980">
        <ele>520.200000</ele>
        <time>2009-07-19T18:16:58Z</time>
      </trkpt>
      <trkpt lat="50.584353" lon="6.274952">
        <ele>520.200000</ele>
        <time>2009-07-19T18:17:07Z</time>
      </trkpt>
      <trkpt lat="50.584350" lon="6.274995">
        <ele>520.200000</ele>
        <time>2009-07-19T18:17:10Z</time>
      </trkpt>
      <trkpt lat="50.584418" lon="6.275012">
        <ele>520.200000</ele>
        <time>2009-07-19T18:17:18Z</time>
      </trkpt>
      <trkpt lat="50.584440" lon="6.274988">
        <ele>523.600000</ele>
        <time>2009-07-19T18:17:21Z</time>
      </trkpt>
      <trkpt lat="50.584445" lon="6.274982">
        <ele>518.800000</ele>
        <time>2009-07-19T18:17:21Z</time>
      </trkpt>
      <trkpt lat="50.584452" lon="6.274977">
        <ele>522.100000</ele>
        <time>2009-07-19T18:17:22Z</time>
      </trkpt>
      <trkpt lat="50.584458" lon="6.274975">
        <ele>518.800000</ele>
        <time>2009-07-19T18:17:23Z</time>
      </trkpt>
      <trkpt lat="50.584459" lon="6.274976">
        <ele>522.100000</ele>
        <time>2009-07-19T18:17:23Z</time>
      </trkpt>
      <trkpt lat="50.584465" lon="6.274976">
        <ele>518.300000</ele>
        <time>2009-07-19T18:17:24Z</time>
      </trkpt>
      <trkpt lat="50.584469" lon="6.274976">
        <ele>521.700000</ele>
        <time>2009-07-19T18:17:24Z</time>
      </trkpt>
      <trkpt lat="50.584473" lon="6.274982">
        <ele>522.100000</ele>
        <time>2009-07-19T18:17:25Z</time>
      </trkpt>
      <trkpt lat="50.584473" lon="6.274983">
        <ele>519.200000</ele>
        <time>2009-07-19T18:17:25Z</time>
      </trkpt>
      <trkpt lat="50.584479" lon="6.274986">
        <ele>522.100000</ele>
        <time>2009-07-19T18:17:26Z</time>
      </trkpt>
      <trkpt lat="50.584469" lon="6.275003">
        <ele>521.200000</ele>
        <time>2009-07-19T18:17:27Z</time>
      </trkpt>
      <trkpt lat="50.584465" lon="6.275004">
        <ele>516.800000</ele>
        <time>2009-07-19T18:17:28Z</time>
      </trkpt>
      <trkpt lat="50.584472" lon="6.275002">
        <ele>516.800000</ele>
        <time>2009-07-19T18:17:29Z</time>
      </trkpt>
      <trkpt lat="50.584476" lon="6.275006">
        <ele>524.100000</ele>
        <time>2009-07-19T18:17:29Z</time>
      </trkpt>
      <trkpt lat="50.584474" lon="6.275013">
        <ele>520.200000</ele>
        <time>2009-07-19T18:17:30Z</time>
      </trkpt>
      <trkpt lat="50.584487" lon="6.274930">
        <ele>514.900000</ele>
        <time>2009-07-19T18:17:36Z</time>
      </trkpt>
      <trkpt lat="50.584489" lon="6.274933">
        <ele>519.700000</ele>
        <time>2009-07-19T18:17:36Z</time>
      </trkpt>
      <trkpt lat="50.584500" lon="6.274946">
        <ele>521.700000</ele>
        <time>2009-07-19T18:17:37Z</time>
      </trkpt>
      <trkpt lat="50.584507" lon="6.274943">
        <ele>519.700000</ele>
        <time>2009-07-19T18:17:38Z</time>
      </trkpt>
      <trkpt lat="50.584457" lon="6.274936">
        <ele>520.200000</ele>
        <time>2009-07-19T18:17:44Z</time>
      </trkpt>
      <trkpt lat="50.584437" lon="6.274869">
        <ele>519.700000</ele>
        <time>2009-07-19T18:17:49Z</time>
      </trkpt>
      <trkpt lat="50.584433" lon="6.274925">
        <ele>520.200000</ele>
        <time>2009-07-19T18:17:53Z</time>
      </trkpt>
      <trkpt lat="50.584464" lon="6.274863">
        <ele>520.700000</ele>
        <time>2009-07-19T18:17:58Z</time>
      </trkpt>
      <trkpt lat="50.584474" lon="6.274834">
        <ele>520.200000</ele>
        <time>2009-07-19T18:18:01Z</time>
      </trkpt>
      <trkpt lat="50.584481" lon="6.274883">
        <ele>520.700000</ele>
        <time>2009-07-19T18:18:04Z</time>
      </trkpt>
      <trkpt lat="50.584301" lon="6.274999">
        <ele>521.200000</ele>
        <time>2009-07-19T18:18:26Z</time>
      </trkpt>
      <trkpt lat="50.584366" lon="6.274906">
        <ele>521.200000</ele>
        <time>2009-07-19T18:18:35Z</time>
      </trkpt>
      <trkpt lat="50.584425" lon="6.274814">
        <ele>522.600000</ele>
        <time>2009-07-19T18:18:45Z</time>
      </trkpt>
      <trkpt lat="50.584463" lon="6.274918">
        <ele>524.100000</ele>
        <time>2009-07-19T18:18:53Z</time>
      </trkpt>
      <trkpt lat="50.584475" lon="6.274868">
        <ele>524.500000</ele>
        <time>2009-07-19T18:18:57Z</time>
      </trkpt>
      <trkpt lat="50.584431" lon="6.274830">
        <ele>525.500000</ele>
        <time>2009-07-19T18:19:02Z</time>
      </trkpt>
      <trkpt lat="50.584495" lon="6.274798">
        <ele>526.000000</ele>
        <time>2009-07-19T18:19:10Z</time>
      </trkpt>
      <trkpt lat="50.584427" lon="6.274841">
        <ele>526.500000</ele>
        <time>2009-07-19T18:19:18Z</time>
      </trkpt>
      <trkpt lat="50.584311" lon="6.274861">
        <ele>526.500000</ele>
        <time>2009-07-19T18:19:31Z</time>
      </trkpt>
      <trkpt lat="50.584311" lon="6.274929">
        <ele>526.900000</ele>
        <time>2009-07-19T18:19:35Z</time>
      </trkpt>
      <trkpt lat="50.584320" lon="6.274979">
        <ele>527.400000</ele>
        <time>2009-07-19T18:19:39Z</time>
      </trkpt>
      <trkpt lat="50.584464" lon="6.274991">
        <ele>527.400000</ele>
        <time>2009-07-19T18:19:55Z</time>
      </trkpt>
      <trkpt lat="50.584449" lon="6.274980">
        <ele>527.400000</ele>
        <time>2009-07-19T18:19:57Z</time>
      </trkpt>
      <trkpt lat="50.584410" lon="6.274999">
        <ele>526.500000</ele>
        <time>2009-07-19T18:20:01Z</time>
      </trkpt>
      <trkpt lat="50.584363" lon="6.275028">
        <ele>526.500000</ele>
        <time>2009-07-19T18:20:07Z</time>
      </trkpt>
      <trkpt lat="50.584313" lon="6.275027">
        <ele>526.500000</ele>
        <time>2009-07-19T18:20:13Z</time>
      </trkpt>
      <trkpt lat="50.584269" lon="6.274969">
        <ele>526.500000</ele>
        <time>2009-07-19T18:20:19Z</time>
      </trkpt>
      <trkpt lat="50.584226" lon="6.275011">
        <ele>526.900000</ele>
        <time>2009-07-19T18:20:25Z</time>
      </trkpt>
      <trkpt lat="50.584260" lon="6.275058">
        <ele>526.900000</ele>
        <time>2009-07-19T18:20:29Z</time>
      </trkpt>
      <trkpt lat="50.584316" lon="6.275097">
        <ele>527.400000</ele>
        <time>2009-07-19T18:20:36Z</time>
      </trkpt>
      <trkpt lat="50.584248" lon="6.275041">
        <ele>527.900000</ele>
        <time>2009-07-19T18:20:45Z</time>
      </trkpt>
      <trkpt lat="50.584290" lon="6.275021">
        <ele>527.400000</ele>
        <time>2009-07-19T18:20:49Z</time>
      </trkpt>
      <trkpt lat="50.584336" lon="6.274999">
        <ele>527.900000</ele>
        <time>2009-07-19T18:20:55Z</time>
      </trkpt>
      <trkpt lat="50.584432" lon="6.274901">
        <ele>527.900000</ele>
        <time>2009-07-19T18:21:07Z</time>
      </trkpt>
      <trkpt lat="50.584502" lon="6.274855">
        <ele>527.900000</ele>
        <time>2009-07-19T18:21:16Z</time>
      </trkpt>
      <trkpt lat="50.584404" lon="6.274969">
        <ele>528.400000</ele>
        <time>2009-07-19T18:21:29Z</time>
      </trkpt>
      <trkpt lat="50.584416" lon="6.274907">
        <ele>528.400000</ele>
        <time>2009-07-19T18:21:34Z</time>
      </trkpt>
      <trkpt lat="50.584425" lon="6.274911">
        <ele>528.400000</ele>
        <time>2009-07-19T18:21:35Z</time>
      </trkpt>
      <trkpt lat="50.584461" lon="6.274849">
        <ele>528.900000</ele>
        <time>2009-07-19T18:21:41Z</time>
      </trkpt>
      <trkpt lat="50.584449" lon="6.274850">
        <ele>528.900000</ele>
        <time>2009-07-19T18:21:42Z</time>
      </trkpt>
      <trkpt lat="50.584529" lon="6.274854">
        <ele>528.400000</ele>
        <time>2009-07-19T18:21:51Z</time>
      </trkpt>
      <trkpt lat="50.584475" lon="6.274993">
        <ele>528.400000</ele>
        <time>2009-07-19T18:22:02Z</time>
      </trkpt>
      <trkpt lat="50.584451" lon="6.274836">
        <ele>528.400000</ele>
        <time>2009-07-19T18:22:13Z</time>
      </trkpt>
      <trkpt lat="50.584547" lon="6.274886">
        <ele>528.400000</ele>
        <time>2009-07-19T18:22:25Z</time>
      </trkpt>
      <trkpt lat="50.584555" lon="6.274857">
        <ele>528.400000</ele>
        <time>2009-07-19T18:22:27Z</time>
      </trkpt>
      <trkpt lat="50.584592" lon="6.274804">
        <ele>528.400000</ele>
        <time>2009-07-19T18:22:32Z</time>
      </trkpt>
      <trkpt lat="50.584461" lon="6.274802">
        <ele>528.400000</ele>
        <time>2009-07-19T18:22:47Z</time>
      </trkpt>
      <trkpt lat="50.584369" lon="6.274888">
        <ele>527.900000</ele>
        <time>2009-07-19T18:22:59Z</time>
      </trkpt>
      <trkpt lat="50.584406" lon="6.274880">
        <ele>528.900000</ele>
        <time>2009-07-19T18:23:03Z</time>
      </trkpt>
      <trkpt lat="50.584372" lon="6.274979">
        <ele>528.900000</ele>
        <time>2009-07-19T18:23:11Z</time>
      </trkpt>
      <trkpt lat="50.584330" lon="6.275092">
        <ele>528.900000</ele>
        <time>2009-07-19T18:23:20Z</time>
      </trkpt>
      <trkpt lat="50.584323" lon="6.275148">
        <ele>529.300000</ele>
        <time>2009-07-19T18:23:24Z</time>
      </trkpt>
      <trkpt lat="50.584322" lon="6.275157">
        <ele>529.300000</ele>
        <time>2009-07-19T18:23:25Z</time>
      </trkpt>
      <trkpt lat="50.584387" lon="6.274992">
        <ele>529.800000</ele>
        <time>2009-07-19T18:23:38Z</time>
      </trkpt>
      <trkpt lat="50.584393" lon="6.274949">
        <ele>529.800000</ele>
        <time>2009-07-19T18:23:41Z</time>
      </trkpt>
      <trkpt lat="50.584436" lon="6.274902">
        <ele>529.800000</ele>
        <time>2009-07-19T18:23:47Z</time>
      </trkpt>
      <trkpt lat="50.584447" lon="6.274938">
        <ele>530.300000</ele>
        <time>2009-07-19T18:23:50Z</time>
      </trkpt>
      <trkpt lat="50.584585" lon="6.274880">
        <ele>530.300000</ele>
        <time>2009-07-19T18:24:06Z</time>
      </trkpt>
      <trkpt lat="50.584507" lon="6.274904">
        <ele>531.300000</ele>
        <time>2009-07-19T18:24:15Z</time>
      </trkpt>
      <trkpt lat="50.584486" lon="6.274957">
        <ele>530.300000</ele>
        <time>2009-07-19T18:24:19Z</time>
      </trkpt>
      <trkpt lat="50.584411" lon="6.274882">
        <ele>531.300000</ele>
        <time>2009-07-19T18:24:29Z</time>
      </trkpt>
      <trkpt lat="50.584378" lon="6.274963">
        <ele>530.800000</ele>
        <time>2009-07-19T18:24:36Z</time>
      </trkpt>
      <trkpt lat="50.584470" lon="6.275138">
        <ele>530.300000</ele>
        <time>2009-07-19T18:24:52Z</time>
      </trkpt>
      <trkpt lat="50.584522" lon="6.274883">
        <ele>531.300000</ele>
        <time>2009-07-19T18:25:10Z</time>
      </trkpt>
      <trkpt lat="50.584525" lon="6.274842">
        <ele>531.700000</ele>
        <time>2009-07-19T18:25:13Z</time>
      </trkpt>
      <trkpt lat="50.584570" lon="6.274830">
        <ele>531.700000</ele>
        <time>2009-07-19T18:25:18Z</time>
      </trkpt>
      <trkpt lat="50.584533" lon="6.274797">
        <ele>531.700000</ele>
        <time>2009-07-19T18:25:23Z</time>
      </trkpt>
      <trkpt lat="50.584621" lon="6.274906">
        <ele>531.300000</ele>
        <time>2009-07-19T18:25:35Z</time>
      </trkpt>
      <trkpt lat="50.584582" lon="6.274861">
        <ele>531.700000</ele>
        <time>2009-07-19T18:25:41Z</time>
      </trkpt>
      <trkpt lat="50.584450" lon="6.274894">
        <ele>531.700000</ele>
        <time>2009-07-19T18:25:55Z</time>
      </trkpt>
      <trkpt lat="50.584452" lon="6.274857">
        <ele>530.800000</ele>
        <time>2009-07-19T18:25:58Z</time>
      </trkpt>
      <trkpt lat="50.584363" lon="6.274934">
        <ele>531.300000</ele>
        <time>2009-07-19T18:26:09Z</time>
      </trkpt>
      <trkpt lat="50.584404" lon="6.274948">
        <ele>531.300000</ele>
        <time>2009-07-19T18:26:14Z</time>
      </trkpt>
      <trkpt lat="50.584450" lon="6.274876">
        <ele>531.700000</ele>
        <time>2009-07-19T18:26:21Z</time>
      </trkpt>
      <trkpt lat="50.584372" lon="6.274999">
        <ele>531.700000</ele>
        <time>2009-07-19T18:26:33Z</time>
      </trkpt>
      <trkpt lat="50.584456" lon="6.274908">
        <ele>531.700000</ele>
        <time>2009-07-19T18:26:45Z</time>
      </trkpt>
      <trkpt lat="50.584445" lon="6.274910">
        <ele>532.200000</ele>
        <time>2009-07-19T18:26:46Z</time>
      </trkpt>
      <trkpt lat="50.584402" lon="6.274884">
        <ele>532.700000</ele>
        <time>2009-07-19T18:26:51Z</time>
      </trkpt>
      <trkpt lat="50.584315" lon="6.274974">
        <ele>532.200000</ele>
        <time>2009-07-19T18:27:02Z</time>
      </trkpt>
      <trkpt lat="50.584303" lon="6.274995">
        <ele>532.700000</ele>
        <time>2009-07-19T18:27:04Z</time>
      </trkpt>
      <trkpt lat="50.584295" lon="6.274910">
        <ele>532.700000</ele>
        <time>2009-07-19T18:27:10Z</time>
      </trkpt>
      <trkpt lat="50.584249" lon="6.274913">
        <ele>532.700000</ele>
        <time>2009-07-19T18:27:15Z</time>
      </trkpt>
      <trkpt lat="50.584220" lon="6.274933">
        <ele>532.700000</ele>
        <time>2009-07-19T18:27:19Z</time>
      </trkpt>
      <trkpt lat="50.584299" lon="6.274950">
        <ele>532.700000</ele>
        <time>2009-07-19T18:27:28Z</time>
      </trkpt>
      <trkpt lat="50.584252" lon="6.274957">
        <ele>532.200000</ele>
        <time>2009-07-19T18:27:33Z</time>
      </trkpt>
      <trkpt lat="50.584130" lon="6.275047">
        <ele>530.300000</ele>
        <time>2009-07-19T18:27:48Z</time>
      </trkpt>
      <trkpt lat="50.584069" lon="6.275135">
        <ele>529.300000</ele>
        <time>2009-07-19T18:27:57Z</time>
      </trkpt>
      <trkpt lat="50.584076" lon="6.275170">
        <ele>529.800000</ele>
        <time>2009-07-19T18:28:00Z</time>
      </trkpt>
      <trkpt lat="50.584096" lon="6.275222">
        <ele>530.300000</ele>
        <time>2009-07-19T18:28:04Z</time>
      </trkpt>
      <trkpt lat="50.584149" lon="6.275436">
        <ele>530.300000</ele>
        <time>2009-07-19T18:28:20Z</time>
      </trkpt>
      <trkpt lat="50.584233" lon="6.275629">
        <ele>528.900000</ele>
        <time>2009-07-19T18:28:36Z</time>
      </trkpt>
      <trkpt lat="50.584346" lon="6.275777">
        <ele>527.400000</ele>
        <time>2009-07-19T18:28:53Z</time>
      </trkpt>
      <trkpt lat="50.584382" lon="6.275958">
        <ele>525.500000</ele>
        <time>2009-07-19T18:29:06Z</time>
      </trkpt>
      <trkpt lat="50.584489" lon="6.276116">
        <ele>524.500000</ele>
        <time>2009-07-19T18:29:22Z</time>
      </trkpt>
      <trkpt lat="50.584543" lon="6.276195">
        <ele>520.200000</ele>
        <time>2009-07-19T18:29:30Z</time>
      </trkpt>
      <trkpt lat="50.584553" lon="6.276216">
        <ele>525.500000</ele>
        <time>2009-07-19T18:29:32Z</time>
      </trkpt>
      <trkpt lat="50.584559" lon="6.276228">
        <ele>522.100000</ele>
        <time>2009-07-19T18:29:33Z</time>
      </trkpt>
      <trkpt lat="50.584581" lon="6.276340">
        <ele>515.900000</ele>
        <time>2009-07-19T18:29:41Z</time>
      </trkpt>
      <trkpt lat="50.584586" lon="6.276356">
        <ele>522.600000</ele>
        <time>2009-07-19T18:29:43Z</time>
      </trkpt>
      <trkpt lat="50.584623" lon="6.276441">
        <ele>514.000000</ele>
        <time>2009-07-19T18:29:50Z</time>
      </trkpt>
      <trkpt lat="50.584642" lon="6.276465">
        <ele>520.700000</ele>
        <time>2009-07-19T18:29:52Z</time>
      </trkpt>
      <trkpt lat="50.584658" lon="6.276481">
        <ele>517.300000</ele>
        <time>2009-07-19T18:29:55Z</time>
      </trkpt>
      <trkpt lat="50.584672" lon="6.276503">
        <ele>528.900000</ele>
        <time>2009-07-19T18:29:57Z</time>
      </trkpt>
      <trkpt lat="50.584681" lon="6.276525">
        <ele>524.100000</ele>
        <time>2009-07-19T18:29:59Z</time>
      </trkpt>
      <trkpt lat="50.584673" lon="6.276694">
        <ele>521.200000</ele>
        <time>2009-07-19T18:30:10Z</time>
      </trkpt>
      <trkpt lat="50.584529" lon="6.276666">
        <ele>520.700000</ele>
        <time>2009-07-19T18:30:26Z</time>
      </trkpt>
      <trkpt lat="50.584427" lon="6.276601">
        <ele>520.200000</ele>
        <time>2009-07-19T18:30:39Z</time>
      </trkpt>
      <trkpt lat="50.584384" lon="6.276525">
        <ele>519.700000</ele>
        <time>2009-07-19T18:30:46Z</time>
      </trkpt>
      <trkpt lat="50.584251" lon="6.276452">
        <ele>519.200000</ele>
        <time>2009-07-19T18:31:01Z</time>
      </trkpt>
      <trkpt lat="50.584121" lon="6.276374">
        <ele>518.300000</ele>
        <time>2009-07-19T18:31:17Z</time>
      </trkpt>
      <trkpt lat="50.584097" lon="6.276366">
        <ele>518.300000</ele>
        <time>2009-07-19T18:31:19Z</time>
      </trkpt>
      <trkpt lat="50.584074" lon="6.276350">
        <ele>517.800000</ele>
        <time>2009-07-19T18:31:22Z</time>
      </trkpt>
      <trkpt lat="50.583954" lon="6.276260">
        <ele>517.300000</ele>
        <time>2009-07-19T18:31:37Z</time>
      </trkpt>
      <trkpt lat="50.583898" lon="6.276244">
        <ele>515.900000</ele>
        <time>2009-07-19T18:31:43Z</time>
      </trkpt>
      <trkpt lat="50.583772" lon="6.276199">
        <ele>514.400000</ele>
        <time>2009-07-19T18:31:57Z</time>
      </trkpt>
      <trkpt lat="50.583600" lon="6.276183">
        <ele>514.000000</ele>
        <time>2009-07-19T18:32:16Z</time>
      </trkpt>
      <trkpt lat="50.583479" lon="6.276309">
        <ele>513.000000</ele>
        <time>2009-07-19T18:32:32Z</time>
      </trkpt>
      <trkpt lat="50.583412" lon="6.276302">
        <ele>512.500000</ele>
        <time>2009-07-19T18:32:40Z</time>
      </trkpt>
      <trkpt lat="50.583333" lon="6.276170">
        <ele>511.600000</ele>
        <time>2009-07-19T18:32:53Z</time>
      </trkpt>
      <trkpt lat="50.583152" lon="6.276098">
        <ele>510.100000</ele>
        <time>2009-07-19T18:33:13Z</time>
      </trkpt>
      <trkpt lat="50.583038" lon="6.276083">
        <ele>509.600000</ele>
        <time>2009-07-19T18:33:26Z</time>
      </trkpt>
      <trkpt lat="50.582913" lon="6.276153">
        <ele>509.600000</ele>
        <time>2009-07-19T18:33:41Z</time>
      </trkpt>
      <trkpt lat="50.582811" lon="6.276208">
        <ele>508.200000</ele>
        <time>2009-07-19T18:33:52Z</time>
      </trkpt>
      <trkpt lat="50.582669" lon="6.276137">
        <ele>507.200000</ele>
        <time>2009-07-19T18:34:09Z</time>
      </trkpt>
      <trkpt lat="50.582578" lon="6.276174">
        <ele>507.200000</ele>
        <time>2009-07-19T18:34:19Z</time>
      </trkpt>
      <trkpt lat="50.582531" lon="6.276150">
        <ele>506.300000</ele>
        <time>2009-07-19T18:34:25Z</time>
      </trkpt>
      <trkpt lat="50.582404" lon="6.276052">
        <ele>505.300000</ele>
        <time>2009-07-19T18:34:40Z</time>
      </trkpt>
      <trkpt lat="50.582264" lon="6.276011">
        <ele>504.300000</ele>
        <time>2009-07-19T18:34:56Z</time>
      </trkpt>
      <trkpt lat="50.582248" lon="6.275999">
        <ele>504.300000</ele>
        <time>2009-07-19T18:34:58Z</time>
      </trkpt>
      <trkpt lat="50.582072" lon="6.275874">
        <ele>504.300000</ele>
        <time>2009-07-19T18:35:19Z</time>
      </trkpt>
      <trkpt lat="50.581944" lon="6.275857">
        <ele>503.400000</ele>
        <time>2009-07-19T18:35:34Z</time>
      </trkpt>
      <trkpt lat="50.581799" lon="6.275841">
        <ele>503.900000</ele>
        <time>2009-07-19T18:35:50Z</time>
      </trkpt>
      <trkpt lat="50.581624" lon="6.275902">
        <ele>501.500000</ele>
        <time>2009-07-19T18:36:09Z</time>
      </trkpt>
      <trkpt lat="50.581548" lon="6.275881">
        <ele>501.500000</ele>
        <time>2009-07-19T18:36:18Z</time>
      </trkpt>
      <trkpt lat="50.581406" lon="6.275904">
        <ele>500.500000</ele>
        <time>2009-07-19T18:36:34Z</time>
      </trkpt>
      <trkpt lat="50.581279" lon="6.275918">
        <ele>500.000000</ele>
        <time>2009-07-19T18:36:48Z</time>
      </trkpt>
      <trkpt lat="50.581153" lon="6.275917">
        <ele>500.000000</ele>
        <time>2009-07-19T18:37:02Z</time>
      </trkpt>
      <trkpt lat="50.581136" lon="6.275938">
        <ele>500.000000</ele>
        <time>2009-07-19T18:37:04Z</time>
      </trkpt>
      <trkpt lat="50.580952" lon="6.275994">
        <ele>498.600000</ele>
        <time>2009-07-19T18:37:25Z</time>
      </trkpt>
      <trkpt lat="50.580827" lon="6.276134">
        <ele>498.600000</ele>
        <time>2009-07-19T18:37:42Z</time>
      </trkpt>
      <trkpt lat="50.580806" lon="6.276192">
        <ele>497.600000</ele>
        <time>2009-07-19T18:37:46Z</time>
      </trkpt>
      <trkpt lat="50.580702" lon="6.276212">
        <ele>497.100000</ele>
        <time>2009-07-19T18:37:58Z</time>
      </trkpt>
      <trkpt lat="50.580674" lon="6.276325">
        <ele>498.100000</ele>
        <time>2009-07-19T18:38:06Z</time>
      </trkpt>
      <trkpt lat="50.580658" lon="6.276524">
        <ele>498.100000</ele>
        <time>2009-07-19T18:38:21Z</time>
      </trkpt>
      <trkpt lat="50.580650" lon="6.276662">
        <ele>498.100000</ele>
        <time>2009-07-19T18:38:30Z</time>
      </trkpt>
      <trkpt lat="50.580574" lon="6.276640">
        <ele>498.100000</ele>
        <time>2009-07-19T18:38:39Z</time>
      </trkpt>
      <trkpt lat="50.580551" lon="6.276670">
        <ele>498.600000</ele>
        <time>2009-07-19T18:38:42Z</time>
      </trkpt>
      <trkpt lat="50.580378" lon="6.276766">
        <ele>499.100000</ele>
        <time>2009-07-19T18:39:02Z</time>
      </trkpt>
      <trkpt lat="50.580277" lon="6.276822">
        <ele>498.100000</ele>
        <time>2009-07-19T18:39:14Z</time>
      </trkpt>
      <trkpt lat="50.580205" lon="6.276901">
        <ele>497.100000</ele>
        <time>2009-07-19T18:39:24Z</time>
      </trkpt>
      <trkpt lat="50.580124" lon="6.276965">
        <ele>498.100000</ele>
        <time>2009-07-19T18:39:34Z</time>
      </trkpt>
      <trkpt lat="50.580042" lon="6.276971">
        <ele>495.700000</ele>
        <time>2009-07-19T18:39:43Z</time>
      </trkpt>
      <trkpt lat="50.579888" lon="6.276968">
        <ele>495.200000</ele>
        <time>2009-07-19T18:40:00Z</time>
      </trkpt>
      <trkpt lat="50.579745" lon="6.276925">
        <ele>494.300000</ele>
        <time>2009-07-19T18:40:16Z</time>
      </trkpt>
      <trkpt lat="50.579663" lon="6.276955">
        <ele>492.300000</ele>
        <time>2009-07-19T18:40:25Z</time>
      </trkpt>
      <trkpt lat="50.579559" lon="6.276998">
        <ele>491.900000</ele>
        <time>2009-07-19T18:40:37Z</time>
      </trkpt>
      <trkpt lat="50.579502" lon="6.277036">
        <ele>491.400000</ele>
        <time>2009-07-19T18:40:44Z</time>
      </trkpt>
      <trkpt lat="50.579483" lon="6.277051">
        <ele>491.900000</ele>
        <time>2009-07-19T18:40:46Z</time>
      </trkpt>
      <trkpt lat="50.579345" lon="6.277176">
        <ele>490.400000</ele>
        <time>2009-07-19T18:41:04Z</time>
      </trkpt>
      <trkpt lat="50.579198" lon="6.277291">
        <ele>490.900000</ele>
        <time>2009-07-19T18:41:22Z</time>
      </trkpt>
      <trkpt lat="50.579037" lon="6.277313">
        <ele>490.900000</ele>
        <time>2009-07-19T18:41:40Z</time>
      </trkpt>
      <trkpt lat="50.578904" lon="6.277316">
        <ele>490.400000</ele>
        <time>2009-07-19T18:41:55Z</time>
      </trkpt>
      <trkpt lat="50.578879" lon="6.277304">
        <ele>489.000000</ele>
        <time>2009-07-19T18:41:58Z</time>
      </trkpt>
      <trkpt lat="50.578678" lon="6.277376">
        <ele>487.500000</ele>
        <time>2009-07-19T18:42:20Z</time>
      </trkpt>
      <trkpt lat="50.578489" lon="6.277500">
        <ele>487.000000</ele>
        <time>2009-07-19T18:42:43Z</time>
      </trkpt>
      <trkpt lat="50.578334" lon="6.277479">
        <ele>486.100000</ele>
        <time>2009-07-19T18:43:00Z</time>
      </trkpt>
      <trkpt lat="50.578156" lon="6.277494">
        <ele>485.600000</ele>
        <time>2009-07-19T18:43:20Z</time>
      </trkpt>
      <trkpt lat="50.578105" lon="6.277620">
        <ele>484.200000</ele>
        <time>2009-07-19T18:43:30Z</time>
      </trkpt>
      <trkpt lat="50.577997" lon="6.277626">
        <ele>484.600000</ele>
        <time>2009-07-19T18:43:42Z</time>
      </trkpt>
      <trkpt lat="50.577846" lon="6.277716">
        <ele>483.700000</ele>
        <time>2009-07-19T18:44:00Z</time>
      </trkpt>
      <trkpt lat="50.577728" lon="6.277830">
        <ele>483.200000</ele>
        <time>2009-07-19T18:44:15Z</time>
      </trkpt>
      <trkpt lat="50.577696" lon="6.277931">
        <ele>482.200000</ele>
        <time>2009-07-19T18:44:23Z</time>
      </trkpt>
      <trkpt lat="50.577585" lon="6.277957">
        <ele>481.300000</ele>
        <time>2009-07-19T18:44:36Z</time>
      </trkpt>
      <trkpt lat="50.577426" lon="6.278044">
        <ele>481.300000</ele>
        <time>2009-07-19T18:44:54Z</time>
      </trkpt>
      <trkpt lat="50.577363" lon="6.278102">
        <ele>481.300000</ele>
        <time>2009-07-19T18:45:02Z</time>
      </trkpt>
      <trkpt lat="50.577286" lon="6.278179">
        <ele>480.800000</ele>
        <time>2009-07-19T18:45:12Z</time>
      </trkpt>
      <trkpt lat="50.577194" lon="6.278300">
        <ele>480.300000</ele>
        <time>2009-07-19T18:45:26Z</time>
      </trkpt>
      <trkpt lat="50.577163" lon="6.278466">
        <ele>479.800000</ele>
        <time>2009-07-19T18:45:38Z</time>
      </trkpt>
      <trkpt lat="50.577082" lon="6.278505">
        <ele>480.300000</ele>
        <time>2009-07-19T18:45:47Z</time>
      </trkpt>
      <trkpt lat="50.577045" lon="6.278603">
        <ele>480.300000</ele>
        <time>2009-07-19T18:45:55Z</time>
      </trkpt>
      <trkpt lat="50.576938" lon="6.278821">
        <ele>478.900000</ele>
        <time>2009-07-19T18:46:14Z</time>
      </trkpt>
      <trkpt lat="50.576792" lon="6.278926">
        <ele>477.900000</ele>
        <time>2009-07-19T18:46:32Z</time>
      </trkpt>
      <trkpt lat="50.576661" lon="6.278974">
        <ele>477.400000</ele>
        <time>2009-07-19T18:46:47Z</time>
      </trkpt>
      <trkpt lat="50.576471" lon="6.279047">
        <ele>477.000000</ele>
        <time>2009-07-19T18:47:09Z</time>
      </trkpt>
      <trkpt lat="50.576453" lon="6.279088">
        <ele>477.000000</ele>
        <time>2009-07-19T18:47:12Z</time>
      </trkpt>
      <trkpt lat="50.576307" lon="6.279217">
        <ele>476.000000</ele>
        <time>2009-07-19T18:47:31Z</time>
      </trkpt>
      <trkpt lat="50.576276" lon="6.279300">
        <ele>475.500000</ele>
        <time>2009-07-19T18:47:37Z</time>
      </trkpt>
      <trkpt lat="50.576157" lon="6.279397">
        <ele>475.500000</ele>
        <time>2009-07-19T18:47:52Z</time>
      </trkpt>
      <trkpt lat="50.576111" lon="6.279510">
        <ele>475.500000</ele>
        <time>2009-07-19T18:48:02Z</time>
      </trkpt>
      <trkpt lat="50.576019" lon="6.279572">
        <ele>475.000000</ele>
        <time>2009-07-19T18:48:13Z</time>
      </trkpt>
      <trkpt lat="50.576018" lon="6.279760">
        <ele>475.000000</ele>
        <time>2009-07-19T18:48:26Z</time>
      </trkpt>
      <trkpt lat="50.576074" lon="6.279880">
        <ele>475.000000</ele>
        <time>2009-07-19T18:48:36Z</time>
      </trkpt>
      <trkpt lat="50.576087" lon="6.280014">
        <ele>475.000000</ele>
        <time>2009-07-19T18:48:46Z</time>
      </trkpt>
      <trkpt lat="50.575949" lon="6.280014">
        <ele>474.500000</ele>
        <time>2009-07-19T18:49:01Z</time>
      </trkpt>
      <trkpt lat="50.575923" lon="6.280034">
        <ele>474.100000</ele>
        <time>2009-07-19T18:49:04Z</time>
      </trkpt>
      <trkpt lat="50.575857" lon="6.280043">
        <ele>473.600000</ele>
        <time>2009-07-19T18:49:12Z</time>
      </trkpt>
      <trkpt lat="50.575736" lon="6.279987">
        <ele>473.600000</ele>
        <time>2009-07-19T18:49:25Z</time>
      </trkpt>
      <trkpt lat="50.575465" lon="6.280108">
        <ele>472.100000</ele>
        <time>2009-07-19T18:49:57Z</time>
      </trkpt>
      <trkpt lat="50.575387" lon="6.280348">
        <ele>471.700000</ele>
        <time>2009-07-19T18:50:15Z</time>
      </trkpt>
      <trkpt lat="50.575284" lon="6.280368">
        <ele>471.700000</ele>
        <time>2009-07-19T18:50:27Z</time>
      </trkpt>
      <trkpt lat="50.575267" lon="6.280487">
        <ele>471.700000</ele>
        <time>2009-07-19T18:50:36Z</time>
      </trkpt>
      <trkpt lat="50.575238" lon="6.280619">
        <ele>472.100000</ele>
        <time>2009-07-19T18:50:45Z</time>
      </trkpt>
      <trkpt lat="50.575218" lon="6.280884">
        <ele>473.100000</ele>
        <time>2009-07-19T18:51:04Z</time>
      </trkpt>
      <trkpt lat="50.575193" lon="6.281132">
        <ele>476.000000</ele>
        <time>2009-07-19T18:51:22Z</time>
      </trkpt>
      <trkpt lat="50.575266" lon="6.281317">
        <ele>476.000000</ele>
        <time>2009-07-19T18:51:37Z</time>
      </trkpt>
      <trkpt lat="50.575238" lon="6.281626">
        <ele>474.100000</ele>
        <time>2009-07-19T18:51:59Z</time>
      </trkpt>
      <trkpt lat="50.575181" lon="6.281753">
        <ele>473.600000</ele>
        <time>2009-07-19T18:52:10Z</time>
      </trkpt>
      <trkpt lat="50.575029" lon="6.281858">
        <ele>472.100000</ele>
        <time>2009-07-19T18:52:28Z</time>
      </trkpt>
      <trkpt lat="50.574951" lon="6.281847">
        <ele>468.800000</ele>
        <time>2009-07-19T18:52:37Z</time>
      </trkpt>
      <trkpt lat="50.574917" lon="6.281966">
        <ele>466.900000</ele>
        <time>2009-07-19T18:52:46Z</time>
      </trkpt>
      <trkpt lat="50.574842" lon="6.282349">
        <ele>465.400000</ele>
        <time>2009-07-19T18:53:14Z</time>
      </trkpt>
      <trkpt lat="50.574828" lon="6.282523">
        <ele>465.400000</ele>
        <time>2009-07-19T18:53:26Z</time>
      </trkpt>
      <trkpt lat="50.574826" lon="6.282643">
        <ele>464.000000</ele>
        <time>2009-07-19T18:53:35Z</time>
      </trkpt>
      <trkpt lat="50.574850" lon="6.282864">
        <ele>462.100000</ele>
        <time>2009-07-19T18:53:51Z</time>
      </trkpt>
      <trkpt lat="50.574831" lon="6.283026">
        <ele>461.600000</ele>
        <time>2009-07-19T18:54:02Z</time>
      </trkpt>
      <trkpt lat="50.574755" lon="6.283284">
        <ele>461.100000</ele>
        <time>2009-07-19T18:54:22Z</time>
      </trkpt>
      <trkpt lat="50.574732" lon="6.283389">
        <ele>458.700000</ele>
        <time>2009-07-19T18:54:30Z</time>
      </trkpt>
      <trkpt lat="50.574546" lon="6.283457">
        <ele>457.700000</ele>
        <time>2009-07-19T18:54:51Z</time>
      </trkpt>
      <trkpt lat="50.574485" lon="6.283319">
        <ele>458.700000</ele>
        <time>2009-07-19T18:55:03Z</time>
      </trkpt>
      <trkpt lat="50.574423" lon="6.283421">
        <ele>460.600000</ele>
        <time>2009-07-19T18:55:13Z</time>
      </trkpt>
      <trkpt lat="50.574385" lon="6.283817">
        <ele>461.100000</ele>
        <time>2009-07-19T18:55:41Z</time>
      </trkpt>
      <trkpt lat="50.574315" lon="6.284019">
        <ele>459.600000</ele>
        <time>2009-07-19T18:55:57Z</time>
      </trkpt>
      <trkpt lat="50.574216" lon="6.284142">
        <ele>456.300000</ele>
        <time>2009-07-19T18:56:11Z</time>
      </trkpt>
      <trkpt lat="50.574200" lon="6.284161">
        <ele>456.300000</ele>
        <time>2009-07-19T18:56:13Z</time>
      </trkpt>
      <trkpt lat="50.574089" lon="6.284282">
        <ele>454.800000</ele>
        <time>2009-07-19T18:56:28Z</time>
      </trkpt>
      <trkpt lat="50.574027" lon="6.284407">
        <ele>453.400000</ele>
        <time>2009-07-19T18:56:39Z</time>
      </trkpt>
      <trkpt lat="50.573997" lon="6.284411">
        <ele>453.400000</ele>
        <time>2009-07-19T18:56:42Z</time>
      </trkpt>
      <trkpt lat="50.573864" lon="6.284529">
        <ele>452.900000</ele>
        <time>2009-07-19T18:56:59Z</time>
      </trkpt>
      <trkpt lat="50.573758" lon="6.284517">
        <ele>452.900000</ele>
        <time>2009-07-19T18:57:11Z</time>
      </trkpt>
      <trkpt lat="50.573702" lon="6.284552">
        <ele>452.900000</ele>
        <time>2009-07-19T18:57:17Z</time>
      </trkpt>
      <trkpt lat="50.573583" lon="6.284664">
        <ele>452.000000</ele>
        <time>2009-07-19T18:57:33Z</time>
      </trkpt>
      <trkpt lat="50.573527" lon="6.284699">
        <ele>452.000000</ele>
        <time>2009-07-19T18:57:39Z</time>
      </trkpt>
      <trkpt lat="50.573459" lon="6.284889">
        <ele>452.000000</ele>
        <time>2009-07-19T18:57:55Z</time>
      </trkpt>
      <trkpt lat="50.573447" lon="6.284874">
        <ele>452.400000</ele>
        <time>2009-07-19T18:57:56Z</time>
      </trkpt>
      <trkpt lat="50.573496" lon="6.284665">
        <ele>453.400000</ele>
        <time>2009-07-19T18:58:12Z</time>
      </trkpt>
      <trkpt lat="50.573494" lon="6.284412">
        <ele>454.400000</ele>
        <time>2009-07-19T18:58:30Z</time>
      </trkpt>
      <trkpt lat="50.573444" lon="6.284329">
        <ele>456.800000</ele>
        <time>2009-07-19T18:58:38Z</time>
      </trkpt>
      <trkpt lat="50.573403" lon="6.284173">
        <ele>457.200000</ele>
        <time>2009-07-19T18:58:50Z</time>
      </trkpt>
      <trkpt lat="50.573392" lon="6.283956">
        <ele>457.700000</ele>
        <time>2009-07-19T18:59:05Z</time>
      </trkpt>
      <trkpt lat="50.573378" lon="6.283671">
        <ele>459.200000</ele>
        <time>2009-07-19T18:59:25Z</time>
      </trkpt>
      <trkpt lat="50.573298" lon="6.283451">
        <ele>461.100000</ele>
        <time>2009-07-19T18:59:43Z</time>
      </trkpt>
      <trkpt lat="50.573142" lon="6.283215">
        <ele>463.000000</ele>
        <time>2009-07-19T19:00:07Z</time>
      </trkpt>
      <trkpt lat="50.573010" lon="6.282960">
        <ele>464.000000</ele>
        <time>2009-07-19T19:00:30Z</time>
      </trkpt>
      <trkpt lat="50.572939" lon="6.282846">
        <ele>466.400000</ele>
        <time>2009-07-19T19:00:41Z</time>
      </trkpt>
      <trkpt lat="50.572888" lon="6.282656">
        <ele>469.300000</ele>
        <time>2009-07-19T19:00:56Z</time>
      </trkpt>
      <trkpt lat="50.572774" lon="6.282523">
        <ele>469.300000</ele>
        <time>2009-07-19T19:01:11Z</time>
      </trkpt>
      <trkpt lat="50.572706" lon="6.282375">
        <ele>471.200000</ele>
        <time>2009-07-19T19:01:24Z</time>
      </trkpt>
      <trkpt lat="50.572362" lon="6.282098">
        <ele>473.600000</ele>
        <time>2009-07-19T19:02:07Z</time>
      </trkpt>
      <trkpt lat="50.572217" lon="6.282163">
        <ele>474.100000</ele>
        <time>2009-07-19T19:02:23Z</time>
      </trkpt>
      <trkpt lat="50.572128" lon="6.282167">
        <ele>473.600000</ele>
        <time>2009-07-19T19:02:33Z</time>
      </trkpt>
      <trkpt lat="50.571971" lon="6.282061">
        <ele>473.600000</ele>
        <time>2009-07-19T19:02:52Z</time>
      </trkpt>
      <trkpt lat="50.571827" lon="6.282010">
        <ele>473.600000</ele>
        <time>2009-07-19T19:03:08Z</time>
      </trkpt>
      <trkpt lat="50.571698" lon="6.282036">
        <ele>473.600000</ele>
        <time>2009-07-19T19:03:23Z</time>
      </trkpt>
      <trkpt lat="50.571624" lon="6.282063">
        <ele>473.600000</ele>
        <time>2009-07-19T19:03:31Z</time>
      </trkpt>
      <trkpt lat="50.571554" lon="6.282053">
        <ele>473.600000</ele>
        <time>2009-07-19T19:03:39Z</time>
      </trkpt>
      <trkpt lat="50.571444" lon="6.282148">
        <ele>474.100000</ele>
        <time>2009-07-19T19:03:53Z</time>
      </trkpt>
      <trkpt lat="50.571443" lon="6.282163">
        <ele>470.200000</ele>
        <time>2009-07-19T19:03:54Z</time>
      </trkpt>
      <trkpt lat="50.571445" lon="6.282184">
        <ele>475.500000</ele>
        <time>2009-07-19T19:03:55Z</time>
      </trkpt>
      <trkpt lat="50.571449" lon="6.282189">
        <ele>474.500000</ele>
        <time>2009-07-19T19:03:56Z</time>
      </trkpt>
      <trkpt lat="50.571448" lon="6.282229">
        <ele>473.100000</ele>
        <time>2009-07-19T19:03:59Z</time>
      </trkpt>
      <trkpt lat="50.571448" lon="6.282239">
        <ele>474.500000</ele>
        <time>2009-07-19T19:03:59Z</time>
      </trkpt>
      <trkpt lat="50.571319" lon="6.282227">
        <ele>472.600000</ele>
        <time>2009-07-19T19:04:14Z</time>
      </trkpt>
      <trkpt lat="50.571197" lon="6.282184">
        <ele>473.600000</ele>
        <time>2009-07-19T19:04:27Z</time>
      </trkpt>
      <trkpt lat="50.571065" lon="6.282230">
        <ele>473.100000</ele>
        <time>2009-07-19T19:04:42Z</time>
      </trkpt>
      <trkpt lat="50.570950" lon="6.282161">
        <ele>473.100000</ele>
        <time>2009-07-19T19:04:56Z</time>
      </trkpt>
      <trkpt lat="50.570865" lon="6.281985">
        <ele>472.600000</ele>
        <time>2009-07-19T19:05:11Z</time>
      </trkpt>
      <trkpt lat="50.570843" lon="6.281790">
        <ele>473.100000</ele>
        <time>2009-07-19T19:05:25Z</time>
      </trkpt>
      <trkpt lat="50.570837" lon="6.281647">
        <ele>473.100000</ele>
        <time>2009-07-19T19:05:35Z</time>
      </trkpt>
      <trkpt lat="50.570835" lon="6.281603">
        <ele>473.600000</ele>
        <time>2009-07-19T19:05:39Z</time>
      </trkpt>
      <trkpt lat="50.570779" lon="6.281476">
        <ele>473.100000</ele>
        <time>2009-07-19T19:05:49Z</time>
      </trkpt>
      <trkpt lat="50.570730" lon="6.281299">
        <ele>473.600000</ele>
        <time>2009-07-19T19:06:03Z</time>
      </trkpt>
      <trkpt lat="50.570643" lon="6.281175">
        <ele>473.600000</ele>
        <time>2009-07-19T19:06:16Z</time>
      </trkpt>
      <trkpt lat="50.570445" lon="6.281008">
        <ele>473.600000</ele>
        <time>2009-07-19T19:06:41Z</time>
      </trkpt>
      <trkpt lat="50.570439" lon="6.281174">
        <ele>474.500000</ele>
        <time>2009-07-19T19:06:52Z</time>
      </trkpt>
      <trkpt lat="50.570427" lon="6.281254">
        <ele>474.500000</ele>
        <time>2009-07-19T19:06:58Z</time>
      </trkpt>
      <trkpt lat="50.570387" lon="6.281651">
        <ele>476.000000</ele>
        <time>2009-07-19T19:07:26Z</time>
      </trkpt>
      <trkpt lat="50.570400" lon="6.281818">
        <ele>476.000000</ele>
        <time>2009-07-19T19:07:38Z</time>
      </trkpt>
      <trkpt lat="50.570397" lon="6.281998">
        <ele>477.000000</ele>
        <time>2009-07-19T19:07:51Z</time>
      </trkpt>
      <trkpt lat="50.570389" lon="6.282134">
        <ele>477.000000</ele>
        <time>2009-07-19T19:08:00Z</time>
      </trkpt>
      <trkpt lat="50.570378" lon="6.282238">
        <ele>477.900000</ele>
        <time>2009-07-19T19:08:08Z</time>
      </trkpt>
      <trkpt lat="50.570320" lon="6.282292">
        <ele>477.900000</ele>
        <time>2009-07-19T19:08:15Z</time>
      </trkpt>
      <trkpt lat="50.570286" lon="6.282372">
        <ele>478.400000</ele>
        <time>2009-07-19T19:08:22Z</time>
      </trkpt>
      <trkpt lat="50.570171" lon="6.282554">
        <ele>478.900000</ele>
        <time>2009-07-19T19:08:40Z</time>
      </trkpt>
      <trkpt lat="50.570028" lon="6.282721">
        <ele>479.800000</ele>
        <time>2009-07-19T19:09:00Z</time>
      </trkpt>
      <trkpt lat="50.569913" lon="6.282841">
        <ele>480.800000</ele>
        <time>2009-07-19T19:09:15Z</time>
      </trkpt>
      <trkpt lat="50.569889" lon="6.282890">
        <ele>480.800000</ele>
        <time>2009-07-19T19:09:19Z</time>
      </trkpt>
      <trkpt lat="50.569822" lon="6.283021">
        <ele>482.200000</ele>
        <time>2009-07-19T19:09:31Z</time>
      </trkpt>
      <trkpt lat="50.569796" lon="6.283115">
        <ele>482.200000</ele>
        <time>2009-07-19T19:09:38Z</time>
      </trkpt>
      <trkpt lat="50.569628" lon="6.283357">
        <ele>482.200000</ele>
        <time>2009-07-19T19:10:03Z</time>
      </trkpt>
      <trkpt lat="50.569606" lon="6.283404">
        <ele>482.700000</ele>
        <time>2009-07-19T19:10:07Z</time>
      </trkpt>
      <trkpt lat="50.569561" lon="6.283517">
        <ele>482.700000</ele>
        <time>2009-07-19T19:10:17Z</time>
      </trkpt>
      <trkpt lat="50.569513" lon="6.283643">
        <ele>482.700000</ele>
        <time>2009-07-19T19:10:27Z</time>
      </trkpt>
      <trkpt lat="50.569478" lon="6.283777">
        <ele>482.200000</ele>
        <time>2009-07-19T19:10:37Z</time>
      </trkpt>
      <trkpt lat="50.569493" lon="6.283683">
        <ele>482.200000</ele>
        <time>2009-07-19T19:10:44Z</time>
      </trkpt>
      <trkpt lat="50.569493" lon="6.283683">
        <ele>468.800000</ele>
        <time>2009-07-19T19:10:44Z</time>
      </trkpt>
      <trkpt lat="50.569278" lon="6.284418">
        <ele>467.300000</ele>
        <time>2009-07-19T19:11:41Z</time>
      </trkpt>
      <trkpt lat="50.569206" lon="6.284800">
        <ele>466.900000</ele>
        <time>2009-07-19T19:12:09Z</time>
      </trkpt>
      <trkpt lat="50.569175" lon="6.284899">
        <ele>467.800000</ele>
        <time>2009-07-19T19:12:17Z</time>
      </trkpt>
      <trkpt lat="50.569134" lon="6.285065">
        <ele>467.800000</ele>
        <time>2009-07-19T19:12:29Z</time>
      </trkpt>
      <trkpt lat="50.569124" lon="6.285118">
        <ele>467.300000</ele>
        <time>2009-07-19T19:12:33Z</time>
      </trkpt>
      <trkpt lat="50.569150" lon="6.285056">
        <ele>467.300000</ele>
        <time>2009-07-19T19:12:38Z</time>
      </trkpt>
      <trkpt lat="50.569136" lon="6.285131">
        <ele>467.300000</ele>
        <time>2009-07-19T19:12:44Z</time>
      </trkpt>
      <trkpt lat="50.569119" lon="6.285298">
        <ele>466.400000</ele>
        <time>2009-07-19T19:12:56Z</time>
      </trkpt>
      <trkpt lat="50.569111" lon="6.285372">
        <ele>466.400000</ele>
        <time>2009-07-19T19:13:01Z</time>
      </trkpt>
      <trkpt lat="50.569003" lon="6.285661">
        <ele>466.400000</ele>
        <time>2009-07-19T19:13:24Z</time>
      </trkpt>
      <trkpt lat="50.568945" lon="6.285869">
        <ele>465.900000</ele>
        <time>2009-07-19T19:13:40Z</time>
      </trkpt>
      <trkpt lat="50.568966" lon="6.286004">
        <ele>464.900000</ele>
        <time>2009-07-19T19:13:50Z</time>
      </trkpt>
      <trkpt lat="50.568886" lon="6.286243">
        <ele>464.900000</ele>
        <time>2009-07-19T19:14:09Z</time>
      </trkpt>
      <trkpt lat="50.568880" lon="6.286272">
        <ele>464.000000</ele>
        <time>2009-07-19T19:14:11Z</time>
      </trkpt>
      <trkpt lat="50.568824" lon="6.286380">
        <ele>464.500000</ele>
        <time>2009-07-19T19:14:21Z</time>
      </trkpt>
      <trkpt lat="50.568783" lon="6.286431">
        <ele>464.500000</ele>
        <time>2009-07-19T19:14:27Z</time>
      </trkpt>
      <trkpt lat="50.568650" lon="6.286543">
        <ele>463.000000</ele>
        <time>2009-07-19T19:14:43Z</time>
      </trkpt>
      <trkpt lat="50.568539" lon="6.286666">
        <ele>462.100000</ele>
        <time>2009-07-19T19:14:58Z</time>
      </trkpt>
      <trkpt lat="50.568434" lon="6.286844">
        <ele>460.600000</ele>
        <time>2009-07-19T19:15:15Z</time>
      </trkpt>
      <trkpt lat="50.568352" lon="6.286955">
        <ele>459.200000</ele>
        <time>2009-07-19T19:15:27Z</time>
      </trkpt>
      <trkpt lat="50.568281" lon="6.287054">
        <ele>456.800000</ele>
        <time>2009-07-19T19:15:38Z</time>
      </trkpt>
      <trkpt lat="50.568249" lon="6.287121">
        <ele>456.300000</ele>
        <time>2009-07-19T19:15:44Z</time>
      </trkpt>
      <trkpt lat="50.568212" lon="6.287224">
        <ele>454.800000</ele>
        <time>2009-07-19T19:15:52Z</time>
      </trkpt>
      <trkpt lat="50.568191" lon="6.287265">
        <ele>454.400000</ele>
        <time>2009-07-19T19:15:56Z</time>
      </trkpt>
      <trkpt lat="50.568165" lon="6.287495">
        <ele>453.400000</ele>
        <time>2009-07-19T19:16:12Z</time>
      </trkpt>
      <trkpt lat="50.568164" lon="6.287521">
        <ele>452.900000</ele>
        <time>2009-07-19T19:16:14Z</time>
      </trkpt>
      <trkpt lat="50.568108" lon="6.287769">
        <ele>452.000000</ele>
        <time>2009-07-19T19:16:32Z</time>
      </trkpt>
      <trkpt lat="50.568064" lon="6.287960">
        <ele>450.500000</ele>
        <time>2009-07-19T19:16:47Z</time>
      </trkpt>
      <trkpt lat="50.568067" lon="6.288017">
        <ele>450.500000</ele>
        <time>2009-07-19T19:16:51Z</time>
      </trkpt>
      <trkpt lat="50.568006" lon="6.288152">
        <ele>450.000000</ele>
        <time>2009-07-19T19:17:02Z</time>
      </trkpt>
      <trkpt lat="50.567943" lon="6.288403">
        <ele>448.600000</ele>
        <time>2009-07-19T19:17:21Z</time>
      </trkpt>
      <trkpt lat="50.567936" lon="6.288555">
        <ele>447.600000</ele>
        <time>2009-07-19T19:17:32Z</time>
      </trkpt>
      <trkpt lat="50.567985" lon="6.288903">
        <ele>446.200000</ele>
        <time>2009-07-19T19:17:57Z</time>
      </trkpt>
      <trkpt lat="50.567987" lon="6.288929">
        <ele>446.200000</ele>
        <time>2009-07-19T19:17:59Z</time>
      </trkpt>
      <trkpt lat="50.567996" lon="6.289108">
        <ele>445.700000</ele>
        <time>2009-07-19T19:18:11Z</time>
      </trkpt>
      <trkpt lat="50.568026" lon="6.289473">
        <ele>445.200000</ele>
        <time>2009-07-19T19:18:37Z</time>
      </trkpt>
      <trkpt lat="50.568041" lon="6.289583">
        <ele>446.200000</ele>
        <time>2009-07-19T19:18:45Z</time>
      </trkpt>
      <trkpt lat="50.568031" lon="6.289796">
        <ele>445.700000</ele>
        <time>2009-07-19T19:19:00Z</time>
      </trkpt>
      <trkpt lat="50.568047" lon="6.289954">
        <ele>444.700000</ele>
        <time>2009-07-19T19:19:11Z</time>
      </trkpt>
      <trkpt lat="50.568062" lon="6.290132">
        <ele>443.300000</ele>
        <time>2009-07-19T19:19:24Z</time>
      </trkpt>
      <trkpt lat="50.568076" lon="6.290221">
        <ele>443.300000</ele>
        <time>2009-07-19T19:19:30Z</time>
      </trkpt>
      <trkpt lat="50.568068" lon="6.290322">
        <ele>442.800000</ele>
        <time>2009-07-19T19:19:37Z</time>
      </trkpt>
      <trkpt lat="50.568045" lon="6.290449">
        <ele>443.300000</ele>
        <time>2009-07-19T19:19:47Z</time>
      </trkpt>
      <trkpt lat="50.568005" lon="6.290545">
        <ele>442.800000</ele>
        <time>2009-07-19T19:19:55Z</time>
      </trkpt>
      <trkpt lat="50.567876" lon="6.290649">
        <ele>441.900000</ele>
        <time>2009-07-19T19:20:11Z</time>
      </trkpt>
      <trkpt lat="50.567746" lon="6.290827">
        <ele>440.900000</ele>
        <time>2009-07-19T19:20:30Z</time>
      </trkpt>
      <trkpt lat="50.567674" lon="6.290906">
        <ele>439.500000</ele>
        <time>2009-07-19T19:20:39Z</time>
      </trkpt>
      <trkpt lat="50.567646" lon="6.290942">
        <ele>440.900000</ele>
        <time>2009-07-19T19:20:44Z</time>
      </trkpt>
      <trkpt lat="50.567602" lon="6.291012">
        <ele>439.500000</ele>
        <time>2009-07-19T19:20:50Z</time>
      </trkpt>
      <trkpt lat="50.567588" lon="6.291027">
        <ele>439.500000</ele>
        <time>2009-07-19T19:20:52Z</time>
      </trkpt>
      <trkpt lat="50.567519" lon="6.291124">
        <ele>439.000000</ele>
        <time>2009-07-19T19:21:03Z</time>
      </trkpt>
      <trkpt lat="50.567336" lon="6.291187">
        <ele>439.000000</ele>
        <time>2009-07-19T19:21:23Z</time>
      </trkpt>
      <trkpt lat="50.567331" lon="6.291204">
        <ele>438.500000</ele>
        <time>2009-07-19T19:21:24Z</time>
      </trkpt>
      <trkpt lat="50.567277" lon="6.291209">
        <ele>438.500000</ele>
        <time>2009-07-19T19:21:30Z</time>
      </trkpt>
      <trkpt lat="50.567169" lon="6.291196">
        <ele>438.000000</ele>
        <time>2009-07-19T19:21:42Z</time>
      </trkpt>
      <trkpt lat="50.567132" lon="6.291251">
        <ele>436.600000</ele>
        <time>2009-07-19T19:21:48Z</time>
      </trkpt>
      <trkpt lat="50.566975" lon="6.291274">
        <ele>435.100000</ele>
        <time>2009-07-19T19:22:06Z</time>
      </trkpt>
      <trkpt lat="50.566839" lon="6.291335">
        <ele>434.200000</ele>
        <time>2009-07-19T19:22:21Z</time>
      </trkpt>
      <trkpt lat="50.566809" lon="6.291353">
        <ele>434.700000</ele>
        <time>2009-07-19T19:22:25Z</time>
      </trkpt>
      <trkpt lat="50.566672" lon="6.291487">
        <ele>434.200000</ele>
        <time>2009-07-19T19:22:42Z</time>
      </trkpt>
      <trkpt lat="50.566644" lon="6.291556">
        <ele>434.200000</ele>
        <time>2009-07-19T19:22:48Z</time>
      </trkpt>
      <trkpt lat="50.566595" lon="6.291667">
        <ele>433.700000</ele>
        <time>2009-07-19T19:22:58Z</time>
      </trkpt>
      <trkpt lat="50.566523" lon="6.291949">
        <ele>433.700000</ele>
        <time>2009-07-19T19:23:19Z</time>
      </trkpt>
      <trkpt lat="50.566488" lon="6.292065">
        <ele>433.200000</ele>
        <time>2009-07-19T19:23:28Z</time>
      </trkpt>
      <trkpt lat="50.566468" lon="6.292293">
        <ele>432.700000</ele>
        <time>2009-07-19T19:23:44Z</time>
      </trkpt>
      <trkpt lat="50.566424" lon="6.292504">
        <ele>432.700000</ele>
        <time>2009-07-19T19:24:00Z</time>
      </trkpt>
      <trkpt lat="50.566355" lon="6.292791">
        <ele>431.800000</ele>
        <time>2009-07-19T19:24:21Z</time>
      </trkpt>
      <trkpt lat="50.566333" lon="6.292974">
        <ele>431.800000</ele>
        <time>2009-07-19T19:24:34Z</time>
      </trkpt>
      <trkpt lat="50.566321" lon="6.293011">
        <ele>431.800000</ele>
        <time>2009-07-19T19:24:37Z</time>
      </trkpt>
      <trkpt lat="50.566317" lon="6.293087">
        <ele>431.800000</ele>
        <time>2009-07-19T19:24:43Z</time>
      </trkpt>
      <trkpt lat="50.566279" lon="6.293316">
        <ele>431.300000</ele>
        <time>2009-07-19T19:24:59Z</time>
      </trkpt>
      <trkpt lat="50.566262" lon="6.293346">
        <ele>430.300000</ele>
        <time>2009-07-19T19:25:02Z</time>
      </trkpt>
      <trkpt lat="50.566151" lon="6.293569">
        <ele>430.300000</ele>
        <time>2009-07-19T19:25:22Z</time>
      </trkpt>
      <trkpt lat="50.566105" lon="6.293664">
        <ele>430.300000</ele>
        <time>2009-07-19T19:25:30Z</time>
      </trkpt>
      <trkpt lat="50.565981" lon="6.293971">
        <ele>428.900000</ele>
        <time>2009-07-19T19:25:56Z</time>
      </trkpt>
      <trkpt lat="50.565885" lon="6.294133">
        <ele>428.400000</ele>
        <time>2009-07-19T19:26:11Z</time>
      </trkpt>
      <trkpt lat="50.565867" lon="6.294161">
        <ele>428.400000</ele>
        <time>2009-07-19T19:26:14Z</time>
      </trkpt>
      <trkpt lat="50.565721" lon="6.294263">
        <ele>427.000000</ele>
        <time>2009-07-19T19:26:32Z</time>
      </trkpt>
      <trkpt lat="50.565578" lon="6.294367">
        <ele>426.000000</ele>
        <time>2009-07-19T19:26:49Z</time>
      </trkpt>
      <trkpt lat="50.565553" lon="6.294426">
        <ele>425.000000</ele>
        <time>2009-07-19T19:26:54Z</time>
      </trkpt>
      <trkpt lat="50.565423" lon="6.294617">
        <ele>424.600000</ele>
        <time>2009-07-19T19:27:14Z</time>
      </trkpt>
      <trkpt lat="50.565312" lon="6.294697">
        <ele>422.600000</ele>
        <time>2009-07-19T19:27:27Z</time>
      </trkpt>
      <trkpt lat="50.565254" lon="6.294762">
        <ele>421.700000</ele>
        <time>2009-07-19T19:27:35Z</time>
      </trkpt>
      <trkpt lat="50.565120" lon="6.294796">
        <ele>420.700000</ele>
        <time>2009-07-19T19:27:50Z</time>
      </trkpt>
      <trkpt lat="50.565038" lon="6.294859">
        <ele>418.800000</ele>
        <time>2009-07-19T19:28:00Z</time>
      </trkpt>
      <trkpt lat="50.565073" lon="6.294904">
        <ele>418.300000</ele>
        <time>2009-07-19T19:28:05Z</time>
      </trkpt>
      <trkpt lat="50.565166" lon="6.294915">
        <ele>417.800000</ele>
        <time>2009-07-19T19:28:15Z</time>
      </trkpt>
      <trkpt lat="50.565318" lon="6.294878">
        <ele>417.800000</ele>
        <time>2009-07-19T19:28:33Z</time>
      </trkpt>
      <trkpt lat="50.565373" lon="6.294841">
        <ele>417.300000</ele>
        <time>2009-07-19T19:28:39Z</time>
      </trkpt>
      <trkpt lat="50.565404" lon="6.294833">
        <ele>416.900000</ele>
        <time>2009-07-19T19:28:43Z</time>
      </trkpt>
      <trkpt lat="50.565607" lon="6.294746">
        <ele>415.900000</ele>
        <time>2009-07-19T19:29:06Z</time>
      </trkpt>
      <trkpt lat="50.565727" lon="6.294701">
        <ele>414.900000</ele>
        <time>2009-07-19T19:29:19Z</time>
      </trkpt>
      <trkpt lat="50.565752" lon="6.294704">
        <ele>414.900000</ele>
        <time>2009-07-19T19:29:22Z</time>
      </trkpt>
      <trkpt lat="50.565918" lon="6.294628">
        <ele>413.500000</ele>
        <time>2009-07-19T19:29:41Z</time>
      </trkpt>
      <trkpt lat="50.566015" lon="6.294591">
        <ele>413.500000</ele>
        <time>2009-07-19T19:29:52Z</time>
      </trkpt>
      <trkpt lat="50.566161" lon="6.294509">
        <ele>412.100000</ele>
        <time>2009-07-19T19:30:09Z</time>
      </trkpt>
      <trkpt lat="50.566293" lon="6.294417">
        <ele>410.100000</ele>
        <time>2009-07-19T19:30:25Z</time>
      </trkpt>
      <trkpt lat="50.566333" lon="6.294345">
        <ele>408.700000</ele>
        <time>2009-07-19T19:30:32Z</time>
      </trkpt>
      <trkpt lat="50.566436" lon="6.294231">
        <ele>405.300000</ele>
        <time>2009-07-19T19:30:46Z</time>
      </trkpt>
      <trkpt lat="50.566510" lon="6.294090">
        <ele>403.400000</ele>
        <time>2009-07-19T19:30:59Z</time>
      </trkpt>
      <trkpt lat="50.566610" lon="6.293902">
        <ele>402.400000</ele>
        <time>2009-07-19T19:31:16Z</time>
      </trkpt>
      <trkpt lat="50.566727" lon="6.293754">
        <ele>401.000000</ele>
        <time>2009-07-19T19:31:33Z</time>
      </trkpt>
      <trkpt lat="50.566814" lon="6.293552">
        <ele>399.600000</ele>
        <time>2009-07-19T19:31:50Z</time>
      </trkpt>
      <trkpt lat="50.566891" lon="6.293342">
        <ele>398.600000</ele>
        <time>2009-07-19T19:32:07Z</time>
      </trkpt>
      <trkpt lat="50.566929" lon="6.293246">
        <ele>397.600000</ele>
        <time>2009-07-19T19:32:15Z</time>
      </trkpt>
      <trkpt lat="50.566995" lon="6.293069">
        <ele>396.700000</ele>
        <time>2009-07-19T19:32:29Z</time>
      </trkpt>
      <trkpt lat="50.567066" lon="6.292977">
        <ele>396.700000</ele>
        <time>2009-07-19T19:32:39Z</time>
      </trkpt>
      <trkpt lat="50.567152" lon="6.292771">
        <ele>394.300000</ele>
        <time>2009-07-19T19:32:57Z</time>
      </trkpt>
      <trkpt lat="50.567154" lon="6.292752">
        <ele>393.800000</ele>
        <time>2009-07-19T19:32:58Z</time>
      </trkpt>
      <trkpt lat="50.567191" lon="6.292676">
        <ele>392.400000</ele>
        <time>2009-07-19T19:33:05Z</time>
      </trkpt>
      <trkpt lat="50.567155" lon="6.292552">
        <ele>389.500000</ele>
        <time>2009-07-19T19:33:14Z</time>
      </trkpt>
      <trkpt lat="50.567154" lon="6.292544">
        <ele>389.000000</ele>
        <time>2009-07-19T19:33:15Z</time>
      </trkpt>
      <trkpt lat="50.567273" lon="6.292539">
        <ele>388.000000</ele>
        <time>2009-07-19T19:33:28Z</time>
      </trkpt>
      <trkpt lat="50.567382" lon="6.292424">
        <ele>387.100000</ele>
        <time>2009-07-19T19:33:42Z</time>
      </trkpt>
      <trkpt lat="50.567409" lon="6.292436">
        <ele>387.500000</ele>
        <time>2009-07-19T19:33:45Z</time>
      </trkpt>
      <trkpt lat="50.567453" lon="6.292565">
        <ele>384.200000</ele>
        <time>2009-07-19T19:33:56Z</time>
      </trkpt>
      <trkpt lat="50.567453" lon="6.292572">
        <ele>390.000000</ele>
        <time>2009-07-19T19:33:56Z</time>
      </trkpt>
      <trkpt lat="50.567424" lon="6.292647">
        <ele>385.100000</ele>
        <time>2009-07-19T19:34:02Z</time>
      </trkpt>
      <trkpt lat="50.567423" lon="6.292633">
        <ele>388.500000</ele>
        <time>2009-07-19T19:34:03Z</time>
      </trkpt>
      <trkpt lat="50.567453" lon="6.292572">
        <ele>385.100000</ele>
        <time>2009-07-19T19:34:09Z</time>
      </trkpt>
      <trkpt lat="50.567455" lon="6.292561">
        <ele>390.900000</ele>
        <time>2009-07-19T19:34:10Z</time>
      </trkpt>
      <trkpt lat="50.567464" lon="6.292565">
        <ele>383.700000</ele>
        <time>2009-07-19T19:34:11Z</time>
      </trkpt>
      <trkpt lat="50.567458" lon="6.292568">
        <ele>387.100000</ele>
        <time>2009-07-19T19:34:11Z</time>
      </trkpt>
      <trkpt lat="50.567425" lon="6.292576">
        <ele>390.000000</ele>
        <time>2009-07-19T19:34:15Z</time>
      </trkpt>
      <trkpt lat="50.567419" lon="6.292576">
        <ele>385.100000</ele>
        <time>2009-07-19T19:34:16Z</time>
      </trkpt>
      <trkpt lat="50.567416" lon="6.292574">
        <ele>389.000000</ele>
        <time>2009-07-19T19:34:16Z</time>
      </trkpt>
      <trkpt lat="50.567406" lon="6.292537">
        <ele>389.000000</ele>
        <time>2009-07-19T19:34:19Z</time>
      </trkpt>
      <trkpt lat="50.567404" lon="6.292567">
        <ele>387.500000</ele>
        <time>2009-07-19T19:34:21Z</time>
      </trkpt>
      <trkpt lat="50.567436" lon="6.292558">
        <ele>388.000000</ele>
        <time>2009-07-19T19:34:24Z</time>
      </trkpt>
      <trkpt lat="50.567346" lon="6.292552">
        <ele>389.000000</ele>
        <time>2009-07-19T19:34:35Z</time>
      </trkpt>
      <trkpt lat="50.567356" lon="6.292709">
        <ele>389.500000</ele>
        <time>2009-07-19T19:34:46Z</time>
      </trkpt>
      <trkpt lat="50.567318" lon="6.292742">
        <ele>389.500000</ele>
        <time>2009-07-19T19:34:50Z</time>
      </trkpt>
      <trkpt lat="50.567112" lon="6.292722">
        <ele>389.500000</ele>
        <time>2009-07-19T19:35:13Z</time>
      </trkpt>
      <trkpt lat="50.567045" lon="6.292914">
        <ele>390.000000</ele>
        <time>2009-07-19T19:35:29Z</time>
      </trkpt>
      <trkpt lat="50.567104" lon="6.293149">
        <ele>390.400000</ele>
        <time>2009-07-19T19:35:46Z</time>
      </trkpt>
      <trkpt lat="50.567141" lon="6.293335">
        <ele>391.400000</ele>
        <time>2009-07-19T19:36:00Z</time>
      </trkpt>
      <trkpt lat="50.567088" lon="6.293625">
        <ele>393.800000</ele>
        <time>2009-07-19T19:36:21Z</time>
      </trkpt>
      <trkpt lat="50.567111" lon="6.293822">
        <ele>395.700000</ele>
        <time>2009-07-19T19:36:35Z</time>
      </trkpt>
      <trkpt lat="50.567200" lon="6.294040">
        <ele>397.200000</ele>
        <time>2009-07-19T19:36:53Z</time>
      </trkpt>
      <trkpt lat="50.567294" lon="6.294108">
        <ele>399.100000</ele>
        <time>2009-07-19T19:37:05Z</time>
      </trkpt>
      <trkpt lat="50.567151" lon="6.294181">
        <ele>401.500000</ele>
        <time>2009-07-19T19:37:21Z</time>
      </trkpt>
      <trkpt lat="50.567147" lon="6.294235">
        <ele>401.500000</ele>
        <time>2009-07-19T19:37:25Z</time>
      </trkpt>
      <trkpt lat="50.567169" lon="6.294361">
        <ele>403.900000</ele>
        <time>2009-07-19T19:37:34Z</time>
      </trkpt>
      <trkpt lat="50.567250" lon="6.294577">
        <ele>405.300000</ele>
        <time>2009-07-19T19:37:52Z</time>
      </trkpt>
      <trkpt lat="50.567184" lon="6.294662">
        <ele>406.800000</ele>
        <time>2009-07-19T19:38:01Z</time>
      </trkpt>
      <trkpt lat="50.567250" lon="6.294798">
        <ele>408.700000</ele>
        <time>2009-07-19T19:38:13Z</time>
      </trkpt>
      <trkpt lat="50.567298" lon="6.294943">
        <ele>409.200000</ele>
        <time>2009-07-19T19:38:25Z</time>
      </trkpt>
      <trkpt lat="50.567318" lon="6.294846">
        <ele>408.700000</ele>
        <time>2009-07-19T19:38:32Z</time>
      </trkpt>
      <trkpt lat="50.567223" lon="6.294942">
        <ele>406.300000</ele>
        <time>2009-07-19T19:38:45Z</time>
      </trkpt>
      <trkpt lat="50.567212" lon="6.294980">
        <ele>406.300000</ele>
        <time>2009-07-19T19:38:47Z</time>
      </trkpt>
      <trkpt lat="50.567195" lon="6.295020">
        <ele>404.900000</ele>
        <time>2009-07-19T19:38:51Z</time>
      </trkpt>
      <trkpt lat="50.567149" lon="6.295131">
        <ele>402.900000</ele>
        <time>2009-07-19T19:39:00Z</time>
      </trkpt>
      <trkpt lat="50.567045" lon="6.295246">
        <ele>400.000000</ele>
        <time>2009-07-19T19:39:14Z</time>
      </trkpt>
      <trkpt lat="50.566910" lon="6.295322">
        <ele>399.100000</ele>
        <time>2009-07-19T19:39:30Z</time>
      </trkpt>
      <trkpt lat="50.566816" lon="6.295489">
        <ele>397.200000</ele>
        <time>2009-07-19T19:39:46Z</time>
      </trkpt>
      <trkpt lat="50.566762" lon="6.295790">
        <ele>394.300000</ele>
        <time>2009-07-19T19:40:08Z</time>
      </trkpt>
      <trkpt lat="50.566686" lon="6.295916">
        <ele>391.900000</ele>
        <time>2009-07-19T19:40:20Z</time>
      </trkpt>
      <trkpt lat="50.566623" lon="6.296032">
        <ele>390.400000</ele>
        <time>2009-07-19T19:40:30Z</time>
      </trkpt>
      <trkpt lat="50.566584" lon="6.296134">
        <ele>391.900000</ele>
        <time>2009-07-19T19:40:39Z</time>
      </trkpt>
      <trkpt lat="50.566574" lon="6.296278">
        <ele>392.400000</ele>
        <time>2009-07-19T19:40:49Z</time>
      </trkpt>
      <trkpt lat="50.566602" lon="6.296496">
        <ele>390.400000</ele>
        <time>2009-07-19T19:41:05Z</time>
      </trkpt>
      <trkpt lat="50.566560" lon="6.296504">
        <ele>390.900000</ele>
        <time>2009-07-19T19:41:09Z</time>
      </trkpt>
      <trkpt lat="50.566509" lon="6.296452">
        <ele>391.400000</ele>
        <time>2009-07-19T19:41:16Z</time>
      </trkpt>
      <trkpt lat="50.566428" lon="6.296459">
        <ele>393.800000</ele>
        <time>2009-07-19T19:41:25Z</time>
      </trkpt>
      <trkpt lat="50.566374" lon="6.296559">
        <ele>395.700000</ele>
        <time>2009-07-19T19:41:34Z</time>
      </trkpt>
      <trkpt lat="50.566295" lon="6.296485">
        <ele>394.300000</ele>
        <time>2009-07-19T19:41:44Z</time>
      </trkpt>
      <trkpt lat="50.566170" lon="6.296475">
        <ele>393.800000</ele>
        <time>2009-07-19T19:41:58Z</time>
      </trkpt>
      <trkpt lat="50.566059" lon="6.296458">
        <ele>393.300000</ele>
        <time>2009-07-19T19:42:10Z</time>
      </trkpt>
      <trkpt lat="50.566060" lon="6.296491">
        <ele>393.300000</ele>
        <time>2009-07-19T19:42:13Z</time>
      </trkpt>
      <trkpt lat="50.566070" lon="6.296502">
        <ele>392.400000</ele>
        <time>2009-07-19T19:42:14Z</time>
      </trkpt>
      <trkpt lat="50.565981" lon="6.296533">
        <ele>390.900000</ele>
        <time>2009-07-19T19:42:24Z</time>
      </trkpt>
      <trkpt lat="50.565905" lon="6.296578">
        <ele>390.000000</ele>
        <time>2009-07-19T19:42:33Z</time>
      </trkpt>
      <trkpt lat="50.565797" lon="6.296658">
        <ele>388.500000</ele>
        <time>2009-07-19T19:42:46Z</time>
      </trkpt>
      <trkpt lat="50.565657" lon="6.296732">
        <ele>387.100000</ele>
        <time>2009-07-19T19:43:03Z</time>
      </trkpt>
      <trkpt lat="50.565531" lon="6.296854">
        <ele>387.100000</ele>
        <time>2009-07-19T19:43:19Z</time>
      </trkpt>
      <trkpt lat="50.565464" lon="6.296951">
        <ele>386.100000</ele>
        <time>2009-07-19T19:43:29Z</time>
      </trkpt>
      <trkpt lat="50.565397" lon="6.297071">
        <ele>384.200000</ele>
        <time>2009-07-19T19:43:40Z</time>
      </trkpt>
      <trkpt lat="50.565317" lon="6.297285">
        <ele>383.200000</ele>
        <time>2009-07-19T19:43:58Z</time>
      </trkpt>
      <trkpt lat="50.565215" lon="6.297428">
        <ele>381.800000</ele>
        <time>2009-07-19T19:44:13Z</time>
      </trkpt>
      <trkpt lat="50.565048" lon="6.297651">
        <ele>380.300000</ele>
        <time>2009-07-19T19:44:37Z</time>
      </trkpt>
      <trkpt lat="50.564929" lon="6.297869">
        <ele>378.900000</ele>
        <time>2009-07-19T19:44:57Z</time>
      </trkpt>
      <trkpt lat="50.564872" lon="6.297962">
        <ele>377.500000</ele>
        <time>2009-07-19T19:45:06Z</time>
      </trkpt>
      <trkpt lat="50.564815" lon="6.298038">
        <ele>376.500000</ele>
        <time>2009-07-19T19:45:14Z</time>
      </trkpt>
      <trkpt lat="50.564660" lon="6.298148">
        <ele>374.600000</ele>
        <time>2009-07-19T19:45:33Z</time>
      </trkpt>
      <trkpt lat="50.564529" lon="6.298168">
        <ele>373.100000</ele>
        <time>2009-07-19T19:45:48Z</time>
      </trkpt>
      <trkpt lat="50.564367" lon="6.298186">
        <ele>373.600000</ele>
        <time>2009-07-19T19:46:06Z</time>
      </trkpt>
      <trkpt lat="50.564349" lon="6.298194">
        <ele>373.600000</ele>
        <time>2009-07-19T19:46:08Z</time>
      </trkpt>
      <trkpt lat="50.564285" lon="6.298179">
        <ele>373.600000</ele>
        <time>2009-07-19T19:46:15Z</time>
      </trkpt>
      <trkpt lat="50.564030" lon="6.298081">
        <ele>372.200000</ele>
        <time>2009-07-19T19:46:44Z</time>
      </trkpt>
      <trkpt lat="50.563897" lon="6.298021">
        <ele>371.200000</ele>
        <time>2009-07-19T19:46:59Z</time>
      </trkpt>
      <trkpt lat="50.563814" lon="6.298009">
        <ele>369.800000</ele>
        <time>2009-07-19T19:47:09Z</time>
      </trkpt>
      <trkpt lat="50.563743" lon="6.298141">
        <ele>366.400000</ele>
        <time>2009-07-19T19:47:21Z</time>
      </trkpt>
      <trkpt lat="50.563665" lon="6.298158">
        <ele>365.000000</ele>
        <time>2009-07-19T19:47:29Z</time>
      </trkpt>
      <trkpt lat="50.563717" lon="6.297763">
        <ele>365.000000</ele>
        <time>2009-07-19T19:47:58Z</time>
      </trkpt>
      <trkpt lat="50.563723" lon="6.297670">
        <ele>365.900000</ele>
        <time>2009-07-19T19:48:04Z</time>
      </trkpt>
      <trkpt lat="50.563782" lon="6.297709">
        <ele>366.400000</ele>
        <time>2009-07-19T19:48:11Z</time>
      </trkpt>
      <trkpt lat="50.563766" lon="6.297780">
        <ele>365.400000</ele>
        <time>2009-07-19T19:48:16Z</time>
      </trkpt>
      <trkpt lat="50.563735" lon="6.297713">
        <ele>365.000000</ele>
        <time>2009-07-19T19:48:22Z</time>
      </trkpt>
      <trkpt lat="50.563695" lon="6.297697">
        <ele>365.900000</ele>
        <time>2009-07-19T19:48:27Z</time>
      </trkpt>
      <trkpt lat="50.563669" lon="6.297652">
        <ele>366.400000</ele>
        <time>2009-07-19T19:48:31Z</time>
      </trkpt>
      <trkpt lat="50.563650" lon="6.297656">
        <ele>364.500000</ele>
        <time>2009-07-19T19:48:33Z</time>
      </trkpt>
      <trkpt lat="50.563645" lon="6.297657">
        <ele>366.900000</ele>
        <time>2009-07-19T19:48:34Z</time>
      </trkpt>
      <trkpt lat="50.563641" lon="6.297658">
        <ele>367.800000</ele>
        <time>2009-07-19T19:48:34Z</time>
      </trkpt>
    </trkseg>
  </trk>

</gpx>
